<?xml version="1.0" encoding="UTF-8" standalone="no" ?>
<gpx xmlns="http://www.topografix.com/GPX/1/1" xmlns:xsi="http://www.w3.org/2001/XMLSchema-instance" xsi:schemaLocation="http://www.topografix.com/GPX/1/1 http://www.topografix.com/GPX/1/1/gpx.xsd" version="1.1" creator="VisuGPX - https://www.visugpx.com">
  <metadata>
    <name>Rando 2021  35 kms</name>
    <desc><![CDATA[Parcours rando 2021 35 kms]]></desc>
  </metadata>
  <trk>
    <name><![CDATA[Rando 2021 "35 km"]]></name>
    <trkseg>
      <trkpt lat="46.94522" lon="-0.59369">
        <ele>120.50422954064</ele>
        <time>2021-08-16T19:47:17.000Z</time>
      </trkpt>
      <trkpt lat="46.94522" lon="-0.59369">
        <ele>120.45297124514</ele>
        <time>2021-08-16T19:47:17.000Z</time>
      </trkpt>
      <trkpt lat="46.94531" lon="-0.59359">
        <ele>120.3777368858</ele>
        <time>2021-08-16T19:47:17.002Z</time>
      </trkpt>
      <trkpt lat="46.94537" lon="-0.59337">
        <ele>120.28188491732</ele>
        <time>2021-08-16T19:47:17.007Z</time>
      </trkpt>
      <trkpt lat="46.94537" lon="-0.59337">
        <ele>119.85205682861</ele>
        <time>2021-08-16T19:47:17.012Z</time>
      </trkpt>
      <trkpt lat="46.94537" lon="-0.59337">
        <ele>119.52927157746</ele>
        <time>2021-08-16T19:47:17.018Z</time>
      </trkpt>
      <trkpt lat="46.94556" lon="-0.59267">
        <ele>118.92701088316</ele>
        <time>2021-08-16T19:47:17.034Z</time>
      </trkpt>
      <trkpt lat="46.94576" lon="-0.59192">
        <ele>118.21737521604</ele>
        <time>2021-08-16T19:47:17.061Z</time>
      </trkpt>
      <trkpt lat="46.94576" lon="-0.59192">
        <ele>117.15208951968</ele>
        <time>2021-08-16T19:47:17.088Z</time>
      </trkpt>
      <trkpt lat="46.94576" lon="-0.59192">
        <ele>116.81755862764</ele>
        <time>2021-08-16T19:47:17.115Z</time>
      </trkpt>
      <trkpt lat="46.94576" lon="-0.59192">
        <ele>116.59484579291</ele>
        <time>2021-08-16T19:47:17.142Z</time>
      </trkpt>
      <trkpt lat="46.94576" lon="-0.59191">
        <ele>116.46598282298</ele>
        <time>2021-08-16T19:47:17.169Z</time>
      </trkpt>
      <trkpt lat="46.94576" lon="-0.59177">
        <ele>116.44361860434</ele>
        <time>2021-08-16T19:47:17.198Z</time>
      </trkpt>
      <trkpt lat="46.94572" lon="-0.59165">
        <ele>116.47790665753</ele>
        <time>2021-08-16T19:47:17.229Z</time>
      </trkpt>
      <trkpt lat="46.94559" lon="-0.59136">
        <ele>116.54608437153</ele>
        <time>2021-08-16T19:47:17.265Z</time>
      </trkpt>
      <trkpt lat="46.94559" lon="-0.59135">
        <ele>116.70684289868</ele>
        <time>2021-08-16T19:47:17.301Z</time>
      </trkpt>
      <trkpt lat="46.94559" lon="-0.59135">
        <ele>116.80741984151</ele>
        <time>2021-08-16T19:47:17.337Z</time>
      </trkpt>
      <trkpt lat="46.94586" lon="-0.59103">
        <ele>116.94387499821</ele>
        <time>2021-08-16T19:47:17.380Z</time>
      </trkpt>
      <trkpt lat="46.9468" lon="-0.59001">
        <ele>117.16927553769</ele>
        <time>2021-08-16T19:47:17.446Z</time>
      </trkpt>
      <trkpt lat="46.9468" lon="-0.58999">
        <ele>117.42591747539</ele>
        <time>2021-08-16T19:47:17.512Z</time>
      </trkpt>
      <trkpt lat="46.94679" lon="-0.58998">
        <ele>118.13673204139</ele>
        <time>2021-08-16T19:47:17.579Z</time>
      </trkpt>
      <trkpt lat="46.94679" lon="-0.58998">
        <ele>118.62549620223</ele>
        <time>2021-08-16T19:47:17.646Z</time>
      </trkpt>
      <trkpt lat="46.94679" lon="-0.58998">
        <ele>119.224286892</ele>
        <time>2021-08-16T19:47:17.713Z</time>
      </trkpt>
      <trkpt lat="46.94672" lon="-0.58966">
        <ele>119.96369733129</ele>
        <time>2021-08-16T19:47:17.784Z</time>
      </trkpt>
      <trkpt lat="46.94694" lon="-0.58944">
        <ele>120.93125575594</ele>
        <time>2021-08-16T19:47:17.861Z</time>
      </trkpt>
      <trkpt lat="46.94723" lon="-0.58932">
        <ele>122.15561364064</ele>
        <time>2021-08-16T19:47:17.944Z</time>
      </trkpt>
      <trkpt lat="46.94723" lon="-0.58932">
        <ele>123.36857738823</ele>
        <time>2021-08-16T19:47:18.027Z</time>
      </trkpt>
      <trkpt lat="46.94723" lon="-0.58931">
        <ele>126.00357454479</ele>
        <time>2021-08-16T19:47:18.110Z</time>
      </trkpt>
      <trkpt lat="46.94723" lon="-0.58931">
        <ele>127.40358945476</ele>
        <time>2021-08-16T19:47:18.193Z</time>
      </trkpt>
      <trkpt lat="46.94733" lon="-0.58927">
        <ele>128.92412862669</ele>
        <time>2021-08-16T19:47:18.278Z</time>
      </trkpt>
      <trkpt lat="46.94785" lon="-0.58912">
        <ele>130.6864149803</ele>
        <time>2021-08-16T19:47:18.373Z</time>
      </trkpt>
      <trkpt lat="46.94814" lon="-0.58893">
        <ele>132.52022802692</ele>
        <time>2021-08-16T19:47:18.475Z</time>
      </trkpt>
      <trkpt lat="46.94832" lon="-0.58878">
        <ele>134.20659735226</ele>
        <time>2021-08-16T19:47:18.581Z</time>
      </trkpt>
      <trkpt lat="46.9485" lon="-0.58854">
        <ele>135.72182326079</ele>
        <time>2021-08-16T19:47:18.692Z</time>
      </trkpt>
      <trkpt lat="46.94892" lon="-0.5877">
        <ele>136.97323426706</ele>
        <time>2021-08-16T19:47:18.817Z</time>
      </trkpt>
      <trkpt lat="46.94893" lon="-0.58769">
        <ele>139.00518758191</ele>
        <time>2021-08-16T19:47:18.942Z</time>
      </trkpt>
      <trkpt lat="46.94893" lon="-0.58769">
        <ele>139.78040971665</ele>
        <time>2021-08-16T19:47:19.067Z</time>
      </trkpt>
      <trkpt lat="46.94893" lon="-0.58769">
        <ele>140.42001447866</ele>
        <time>2021-08-16T19:47:19.192Z</time>
      </trkpt>
      <trkpt lat="46.94893" lon="-0.58769">
        <ele>139.78040971665</ele>
        <time>2021-08-16T19:47:19.317Z</time>
      </trkpt>
      <trkpt lat="46.94862" lon="-0.58728">
        <ele>141.25901477768</ele>
        <time>2021-08-16T19:47:19.451Z</time>
      </trkpt>
      <trkpt lat="46.94849" lon="-0.58701">
        <ele>141.68124008765</ele>
        <time>2021-08-16T19:47:19.589Z</time>
      </trkpt>
      <trkpt lat="46.94824" lon="-0.5865">
        <ele>142.08119189477</ele>
        <time>2021-08-16T19:47:19.736Z</time>
      </trkpt>
      <trkpt lat="46.94787" lon="-0.58545">
        <ele>142.31258293619</ele>
        <time>2021-08-16T19:47:19.899Z</time>
      </trkpt>
      <trkpt lat="46.94787" lon="-0.58545">
        <ele>142.48529593235</ele>
        <time>2021-08-16T19:47:20.062Z</time>
      </trkpt>
      <trkpt lat="46.94787" lon="-0.58545">
        <ele>142.41243275988</ele>
        <time>2021-08-16T19:47:20.225Z</time>
      </trkpt>
      <trkpt lat="46.94787" lon="-0.58545">
        <ele>142.21957472852</ele>
        <time>2021-08-16T19:47:20.388Z</time>
      </trkpt>
      <trkpt lat="46.94719" lon="-0.58351">
        <ele>142.07093763055</ele>
        <time>2021-08-16T19:47:20.581Z</time>
      </trkpt>
      <trkpt lat="46.94672" lon="-0.58216">
        <ele>141.26779380354</ele>
        <time>2021-08-16T19:47:20.795Z</time>
      </trkpt>
      <trkpt lat="46.94669" lon="-0.58215">
        <ele>140.60238337017</ele>
        <time>2021-08-16T19:47:21.009Z</time>
      </trkpt>
      <trkpt lat="46.94669" lon="-0.58215">
        <ele>139.81226628099</ele>
        <time>2021-08-16T19:47:21.223Z</time>
      </trkpt>
      <trkpt lat="46.94669" lon="-0.58215">
        <ele>137.78885313205</ele>
        <time>2021-08-16T19:47:21.437Z</time>
      </trkpt>
      <trkpt lat="46.94669" lon="-0.58215">
        <ele>136.54087120081</ele>
        <time>2021-08-16T19:47:21.651Z</time>
      </trkpt>
      <trkpt lat="46.94669" lon="-0.58215">
        <ele>135.12619889958</ele>
        <time>2021-08-16T19:47:21.865Z</time>
      </trkpt>
      <trkpt lat="46.94655" lon="-0.58209">
        <ele>133.44920698715</ele>
        <time>2021-08-16T19:47:22.082Z</time>
      </trkpt>
      <trkpt lat="46.9463" lon="-0.58208">
        <ele>131.5651710585</ele>
        <time>2021-08-16T19:47:22.304Z</time>
      </trkpt>
      <trkpt lat="46.9462" lon="-0.58205">
        <ele>129.61298529861</ele>
        <time>2021-08-16T19:47:22.528Z</time>
      </trkpt>
      <trkpt lat="46.9461" lon="-0.582">
        <ele>127.55875937199</ele>
        <time>2021-08-16T19:47:22.754Z</time>
      </trkpt>
      <trkpt lat="46.94566" lon="-0.58158">
        <ele>125.23792194793</ele>
        <time>2021-08-16T19:47:22.991Z</time>
      </trkpt>
      <trkpt lat="46.94552" lon="-0.58147">
        <ele>122.96964389063</ele>
        <time>2021-08-16T19:47:23.231Z</time>
      </trkpt>
      <trkpt lat="46.94407" lon="-0.58068">
        <ele>120.22538295518</ele>
        <time>2021-08-16T19:47:23.502Z</time>
      </trkpt>
      <trkpt lat="46.94398" lon="-0.58061">
        <ele>118.05686438676</ele>
        <time>2021-08-16T19:47:23.775Z</time>
      </trkpt>
      <trkpt lat="46.94398" lon="-0.58061">
        <ele>116.03943985621</ele>
        <time>2021-08-16T19:47:24.048Z</time>
      </trkpt>
      <trkpt lat="46.94397" lon="-0.5806">
        <ele>112.48056543258</ele>
        <time>2021-08-16T19:47:24.321Z</time>
      </trkpt>
      <trkpt lat="46.94397" lon="-0.5806">
        <ele>110.94827256379</ele>
        <time>2021-08-16T19:47:24.594Z</time>
      </trkpt>
      <trkpt lat="46.94397" lon="-0.5806">
        <ele>109.57416187462</ele>
        <time>2021-08-16T19:47:24.867Z</time>
      </trkpt>
      <trkpt lat="46.9437" lon="-0.58012">
        <ele>108.2953296076</ele>
        <time>2021-08-16T19:47:25.149Z</time>
      </trkpt>
      <trkpt lat="46.94326" lon="-0.58055">
        <ele>107.13962483065</ele>
        <time>2021-08-16T19:47:25.441Z</time>
      </trkpt>
      <trkpt lat="46.9429" lon="-0.58118">
        <ele>105.96957039766</ele>
        <time>2021-08-16T19:47:25.745Z</time>
      </trkpt>
      <trkpt lat="46.94275" lon="-0.58134">
        <ele>105.11347158077</ele>
        <time>2021-08-16T19:47:26.052Z</time>
      </trkpt>
      <trkpt lat="46.94254" lon="-0.5815">
        <ele>104.42921573969</ele>
        <time>2021-08-16T19:47:26.364Z</time>
      </trkpt>
      <trkpt lat="46.94251" lon="-0.58143">
        <ele>103.86162133332</ele>
        <time>2021-08-16T19:47:26.677Z</time>
      </trkpt>
      <trkpt lat="46.94251" lon="-0.58142">
        <ele>103.07356464936</ele>
        <time>2021-08-16T19:47:26.990Z</time>
      </trkpt>
      <trkpt lat="46.94251" lon="-0.58142">
        <ele>102.82027357352</ele>
        <time>2021-08-16T19:47:27.303Z</time>
      </trkpt>
      <trkpt lat="46.94251" lon="-0.58142">
        <ele>102.64396052895</ele>
        <time>2021-08-16T19:47:27.616Z</time>
      </trkpt>
      <trkpt lat="46.94199" lon="-0.58022">
        <ele>102.49973836167</ele>
        <time>2021-08-16T19:47:27.949Z</time>
      </trkpt>
      <trkpt lat="46.94184" lon="-0.57974">
        <ele>102.42284912712</ele>
        <time>2021-08-16T19:47:28.289Z</time>
      </trkpt>
      <trkpt lat="46.94175" lon="-0.57955">
        <ele>102.42687827842</ele>
        <time>2021-08-16T19:47:28.632Z</time>
      </trkpt>
      <trkpt lat="46.94164" lon="-0.57945">
        <ele>102.51245320326</ele>
        <time>2021-08-16T19:47:28.978Z</time>
      </trkpt>
      <trkpt lat="46.94155" lon="-0.57941">
        <ele>102.65754836301</ele>
        <time>2021-08-16T19:47:29.325Z</time>
      </trkpt>
      <trkpt lat="46.94129" lon="-0.57934">
        <ele>102.84216860387</ele>
        <time>2021-08-16T19:47:29.678Z</time>
      </trkpt>
      <trkpt lat="46.94118" lon="-0.57931">
        <ele>103.07316345166</ele>
        <time>2021-08-16T19:47:30.033Z</time>
      </trkpt>
      <trkpt lat="46.9411" lon="-0.57935">
        <ele>103.35559132768</ele>
        <time>2021-08-16T19:47:30.390Z</time>
      </trkpt>
      <trkpt lat="46.94108" lon="-0.57938">
        <ele>103.70605621571</ele>
        <time>2021-08-16T19:47:30.747Z</time>
      </trkpt>
      <trkpt lat="46.94107" lon="-0.57939">
        <ele>104.66510007338</ele>
        <time>2021-08-16T19:47:31.104Z</time>
      </trkpt>
      <trkpt lat="46.94107" lon="-0.57939">
        <ele>105.28691483214</ele>
        <time>2021-08-16T19:47:31.462Z</time>
      </trkpt>
      <trkpt lat="46.94113" lon="-0.57963">
        <ele>105.9994366672</ele>
        <time>2021-08-16T19:47:31.823Z</time>
      </trkpt>
      <trkpt lat="46.94129" lon="-0.5801">
        <ele>106.83217646432</ele>
        <time>2021-08-16T19:47:32.191Z</time>
      </trkpt>
      <trkpt lat="46.94132" lon="-0.5803">
        <ele>107.76909984464</ele>
        <time>2021-08-16T19:47:32.562Z</time>
      </trkpt>
      <trkpt lat="46.94138" lon="-0.58095">
        <ele>108.84265005942</ele>
        <time>2021-08-16T19:47:32.942Z</time>
      </trkpt>
      <trkpt lat="46.94143" lon="-0.58165">
        <ele>110.13041604947</ele>
        <time>2021-08-16T19:47:33.332Z</time>
      </trkpt>
      <trkpt lat="46.9414" lon="-0.58235">
        <ele>111.47042364252</ele>
        <time>2021-08-16T19:47:33.731Z</time>
      </trkpt>
      <trkpt lat="46.94136" lon="-0.58274">
        <ele>112.70069910662</ele>
        <time>2021-08-16T19:47:34.136Z</time>
      </trkpt>
      <trkpt lat="46.94126" lon="-0.58354">
        <ele>113.91489670125</ele>
        <time>2021-08-16T19:47:34.552Z</time>
      </trkpt>
      <trkpt lat="46.94113" lon="-0.5843">
        <ele>115.00332281761</ele>
        <time>2021-08-16T19:47:34.978Z</time>
      </trkpt>
      <trkpt lat="46.94113" lon="-0.5843">
        <ele>116.89766722123</ele>
        <time>2021-08-16T19:47:35.405Z</time>
      </trkpt>
      <trkpt lat="46.94113" lon="-0.5843">
        <ele>117.69378930766</ele>
        <time>2021-08-16T19:47:35.832Z</time>
      </trkpt>
      <trkpt lat="46.94091" lon="-0.5849">
        <ele>118.46846739927</ele>
        <time>2021-08-16T19:47:36.268Z</time>
      </trkpt>
      <trkpt lat="46.94091" lon="-0.5849">
        <ele>119.51135958707</ele>
        <time>2021-08-16T19:47:36.704Z</time>
      </trkpt>
      <trkpt lat="46.94091" lon="-0.58491">
        <ele>119.86676973358</ele>
        <time>2021-08-16T19:47:37.140Z</time>
      </trkpt>
      <trkpt lat="46.94062" lon="-0.5854">
        <ele>120.1175643944</ele>
        <time>2021-08-16T19:47:37.585Z</time>
      </trkpt>
      <trkpt lat="46.94062" lon="-0.5854">
        <ele>120.34682884718</ele>
        <time>2021-08-16T19:47:38.030Z</time>
      </trkpt>
      <trkpt lat="46.94062" lon="-0.5854">
        <ele>120.3383182286</ele>
        <time>2021-08-16T19:47:38.475Z</time>
      </trkpt>
      <trkpt lat="46.94018" lon="-0.58491">
        <ele>120.26777228422</ele>
        <time>2021-08-16T19:47:38.931Z</time>
      </trkpt>
      <trkpt lat="46.94017" lon="-0.5849">
        <ele>119.91825538256</ele>
        <time>2021-08-16T19:47:39.387Z</time>
      </trkpt>
      <trkpt lat="46.94017" lon="-0.5849">
        <ele>119.66249904367</ele>
        <time>2021-08-16T19:47:39.843Z</time>
      </trkpt>
      <trkpt lat="46.93917" lon="-0.58392">
        <ele>119.29975381754</ele>
        <time>2021-08-16T19:47:40.323Z</time>
      </trkpt>
      <trkpt lat="46.93916" lon="-0.58391">
        <ele>118.58162857843</ele>
        <time>2021-08-16T19:47:40.804Z</time>
      </trkpt>
      <trkpt lat="46.93916" lon="-0.58391">
        <ele>118.17491378547</ele>
        <time>2021-08-16T19:47:41.285Z</time>
      </trkpt>
      <trkpt lat="46.93906" lon="-0.58374">
        <ele>117.72703583928</ele>
        <time>2021-08-16T19:47:41.769Z</time>
      </trkpt>
      <trkpt lat="46.93906" lon="-0.58373">
        <ele>116.77644123292</ele>
        <time>2021-08-16T19:47:42.253Z</time>
      </trkpt>
      <trkpt lat="46.93906" lon="-0.58373">
        <ele>116.26644723314</ele>
        <time>2021-08-16T19:47:42.737Z</time>
      </trkpt>
      <trkpt lat="46.93839" lon="-0.58216">
        <ele>115.53630545199</ele>
        <time>2021-08-16T19:47:43.246Z</time>
      </trkpt>
      <trkpt lat="46.93838" lon="-0.58215">
        <ele>114.46476706392</ele>
        <time>2021-08-16T19:47:43.755Z</time>
      </trkpt>
      <trkpt lat="46.93838" lon="-0.58215">
        <ele>113.92976257432</ele>
        <time>2021-08-16T19:47:44.264Z</time>
      </trkpt>
      <trkpt lat="46.93772" lon="-0.5806">
        <ele>113.37608756468</ele>
        <time>2021-08-16T19:47:44.798Z</time>
      </trkpt>
      <trkpt lat="46.93772" lon="-0.58059">
        <ele>112.2826439674</ele>
        <time>2021-08-16T19:47:45.333Z</time>
      </trkpt>
      <trkpt lat="46.93772" lon="-0.58059">
        <ele>111.71557218099</ele>
        <time>2021-08-16T19:47:45.868Z</time>
      </trkpt>
      <trkpt lat="46.93762" lon="-0.58051">
        <ele>111.13496619629</ele>
        <time>2021-08-16T19:47:46.405Z</time>
      </trkpt>
      <trkpt lat="46.93761" lon="-0.58051">
        <ele>109.90431690031</ele>
        <time>2021-08-16T19:47:46.942Z</time>
      </trkpt>
      <trkpt lat="46.93761" lon="-0.58051">
        <ele>109.26940447304</ele>
        <time>2021-08-16T19:47:47.479Z</time>
      </trkpt>
      <trkpt lat="46.93713" lon="-0.57936">
        <ele>108.43858084096</ele>
        <time>2021-08-16T19:47:48.034Z</time>
      </trkpt>
      <trkpt lat="46.93713" lon="-0.57935">
        <ele>107.26868726981</ele>
        <time>2021-08-16T19:47:48.590Z</time>
      </trkpt>
      <trkpt lat="46.93713" lon="-0.57935">
        <ele>106.77674248084</ele>
        <time>2021-08-16T19:47:49.146Z</time>
      </trkpt>
      <trkpt lat="46.93635" lon="-0.57728">
        <ele>106.10364615981</ele>
        <time>2021-08-16T19:47:49.734Z</time>
      </trkpt>
      <trkpt lat="46.93635" lon="-0.57727">
        <ele>105.65301032226</ele>
        <time>2021-08-16T19:47:50.322Z</time>
      </trkpt>
      <trkpt lat="46.93635" lon="-0.57727">
        <ele>105.62591142941</ele>
        <time>2021-08-16T19:47:50.910Z</time>
      </trkpt>
      <trkpt lat="46.93634" lon="-0.57728">
        <ele>105.72488054855</ele>
        <time>2021-08-16T19:47:51.498Z</time>
      </trkpt>
      <trkpt lat="46.93625" lon="-0.57704">
        <ele>105.96504609618</ele>
        <time>2021-08-16T19:47:52.090Z</time>
      </trkpt>
      <trkpt lat="46.93587" lon="-0.57571">
        <ele>106.5923024023</ele>
        <time>2021-08-16T19:47:52.702Z</time>
      </trkpt>
      <trkpt lat="46.9356" lon="-0.57463">
        <ele>106.94565560622</ele>
        <time>2021-08-16T19:47:53.330Z</time>
      </trkpt>
      <trkpt lat="46.93559" lon="-0.57461">
        <ele>107.61466303101</ele>
        <time>2021-08-16T19:47:53.958Z</time>
      </trkpt>
      <trkpt lat="46.93559" lon="-0.5746">
        <ele>107.90956373634</ele>
        <time>2021-08-16T19:47:54.586Z</time>
      </trkpt>
      <trkpt lat="46.93559" lon="-0.5746">
        <ele>108.16441785068</ele>
        <time>2021-08-16T19:47:55.214Z</time>
      </trkpt>
      <trkpt lat="46.93527" lon="-0.57331">
        <ele>108.37788354695</ele>
        <time>2021-08-16T19:47:55.861Z</time>
      </trkpt>
      <trkpt lat="46.93461" lon="-0.57036">
        <ele>108.42956677953</ele>
        <time>2021-08-16T19:47:56.550Z</time>
      </trkpt>
      <trkpt lat="46.93453" lon="-0.56999">
        <ele>108.51382052058</ele>
        <time>2021-08-16T19:47:57.245Z</time>
      </trkpt>
      <trkpt lat="46.93453" lon="-0.56997">
        <ele>108.82007992339</ele>
        <time>2021-08-16T19:47:57.940Z</time>
      </trkpt>
      <trkpt lat="46.93452" lon="-0.56995">
        <ele>108.98917222678</ele>
        <time>2021-08-16T19:47:58.635Z</time>
      </trkpt>
      <trkpt lat="46.93452" lon="-0.56995">
        <ele>109.18058841487</ele>
        <time>2021-08-16T19:47:59.330Z</time>
      </trkpt>
      <trkpt lat="46.93399" lon="-0.5675">
        <ele>109.59302927483</ele>
        <time>2021-08-16T19:48:00.060Z</time>
      </trkpt>
      <trkpt lat="46.93399" lon="-0.5675">
        <ele>109.80762793726</ele>
        <time>2021-08-16T19:48:00.790Z</time>
      </trkpt>
      <trkpt lat="46.93396" lon="-0.56738">
        <ele>110.01985705526</ele>
        <time>2021-08-16T19:48:01.522Z</time>
      </trkpt>
      <trkpt lat="46.93396" lon="-0.56736">
        <ele>110.42532448739</ele>
        <time>2021-08-16T19:48:02.254Z</time>
      </trkpt>
      <trkpt lat="46.93395" lon="-0.56734">
        <ele>110.61727680476</ele>
        <time>2021-08-16T19:48:02.987Z</time>
      </trkpt>
      <trkpt lat="46.93396" lon="-0.56734">
        <ele>110.80359731371</ele>
        <time>2021-08-16T19:48:03.720Z</time>
      </trkpt>
      <trkpt lat="46.93339" lon="-0.56479">
        <ele>110.96751911692</ele>
        <time>2021-08-16T19:48:04.490Z</time>
      </trkpt>
      <trkpt lat="46.93281" lon="-0.56216">
        <ele>111.1698784484</ele>
        <time>2021-08-16T19:48:05.297Z</time>
      </trkpt>
      <trkpt lat="46.93281" lon="-0.56215">
        <ele>111.54451593149</ele>
        <time>2021-08-16T19:48:06.105Z</time>
      </trkpt>
      <trkpt lat="46.9328" lon="-0.56213">
        <ele>111.73855727024</ele>
        <time>2021-08-16T19:48:06.913Z</time>
      </trkpt>
      <trkpt lat="46.9328" lon="-0.56213">
        <ele>111.93728836164</ele>
        <time>2021-08-16T19:48:07.721Z</time>
      </trkpt>
      <trkpt lat="46.93194" lon="-0.55821">
        <ele>112.20836894748</ele>
        <time>2021-08-16T19:48:08.585Z</time>
      </trkpt>
      <trkpt lat="46.93194" lon="-0.5582">
        <ele>112.60144534117</ele>
        <time>2021-08-16T19:48:09.449Z</time>
      </trkpt>
      <trkpt lat="46.93193" lon="-0.55818">
        <ele>112.78504786328</ele>
        <time>2021-08-16T19:48:10.314Z</time>
      </trkpt>
      <trkpt lat="46.93193" lon="-0.55818">
        <ele>112.95501315614</ele>
        <time>2021-08-16T19:48:11.179Z</time>
      </trkpt>
      <trkpt lat="46.93179" lon="-0.55753">
        <ele>113.08860206911</ele>
        <time>2021-08-16T19:48:12.053Z</time>
      </trkpt>
      <trkpt lat="46.93092" lon="-0.55364">
        <ele>113.26597843201</ele>
        <time>2021-08-16T19:48:12.983Z</time>
      </trkpt>
      <trkpt lat="46.92999" lon="-0.54942">
        <ele>113.54468729539</ele>
        <time>2021-08-16T19:48:13.974Z</time>
      </trkpt>
      <trkpt lat="46.92998" lon="-0.54941">
        <ele>113.65898992856</ele>
        <time>2021-08-16T19:48:14.965Z</time>
      </trkpt>
      <trkpt lat="46.92998" lon="-0.54939">
        <ele>113.6692361659</ele>
        <time>2021-08-16T19:48:15.956Z</time>
      </trkpt>
      <trkpt lat="46.92998" lon="-0.54939">
        <ele>113.66282301087</ele>
        <time>2021-08-16T19:48:16.947Z</time>
      </trkpt>
      <trkpt lat="46.9298" lon="-0.54857">
        <ele>113.56889378153</ele>
        <time>2021-08-16T19:48:17.950Z</time>
      </trkpt>
      <trkpt lat="46.92927" lon="-0.54624">
        <ele>113.51625792978</ele>
        <time>2021-08-16T19:48:18.987Z</time>
      </trkpt>
      <trkpt lat="46.92858" lon="-0.54317">
        <ele>113.62101065799</ele>
        <time>2021-08-16T19:48:20.068Z</time>
      </trkpt>
      <trkpt lat="46.92858" lon="-0.54315">
        <ele>114.04800256527</ele>
        <time>2021-08-16T19:48:21.149Z</time>
      </trkpt>
      <trkpt lat="46.92857" lon="-0.54314">
        <ele>114.42730673832</ele>
        <time>2021-08-16T19:48:22.231Z</time>
      </trkpt>
      <trkpt lat="46.92857" lon="-0.54314">
        <ele>114.93355385989</ele>
        <time>2021-08-16T19:48:23.313Z</time>
      </trkpt>
      <trkpt lat="46.92814" lon="-0.54122">
        <ele>115.45321034184</ele>
        <time>2021-08-16T19:48:24.422Z</time>
      </trkpt>
      <trkpt lat="46.92808" lon="-0.54096">
        <ele>116.24768664731</ele>
        <time>2021-08-16T19:48:25.535Z</time>
      </trkpt>
      <trkpt lat="46.92754" lon="-0.53861">
        <ele>117.55624393898</ele>
        <time>2021-08-16T19:48:26.682Z</time>
      </trkpt>
      <trkpt lat="46.92696" lon="-0.53585">
        <ele>118.55010618315</ele>
        <time>2021-08-16T19:48:27.869Z</time>
      </trkpt>
      <trkpt lat="46.92646" lon="-0.5336">
        <ele>119.66351464997</ele>
        <time>2021-08-16T19:48:29.088Z</time>
      </trkpt>
      <trkpt lat="46.92645" lon="-0.53356">
        <ele>121.66916647379</ele>
        <time>2021-08-16T19:48:30.308Z</time>
      </trkpt>
      <trkpt lat="46.92645" lon="-0.53356">
        <ele>122.63928660439</ele>
        <time>2021-08-16T19:48:31.528Z</time>
      </trkpt>
      <trkpt lat="46.92615" lon="-0.53221">
        <ele>123.47995541829</ele>
        <time>2021-08-16T19:48:32.767Z</time>
      </trkpt>
      <trkpt lat="46.92595" lon="-0.53144">
        <ele>124.28981670463</ele>
        <time>2021-08-16T19:48:34.017Z</time>
      </trkpt>
      <trkpt lat="46.92564" lon="-0.53037">
        <ele>125.29558748454</ele>
        <time>2021-08-16T19:48:35.283Z</time>
      </trkpt>
      <trkpt lat="46.92535" lon="-0.52958">
        <ele>126.09525443814</ele>
        <time>2021-08-16T19:48:36.562Z</time>
      </trkpt>
      <trkpt lat="46.92489" lon="-0.52847">
        <ele>126.87371394864</ele>
        <time>2021-08-16T19:48:37.858Z</time>
      </trkpt>
      <trkpt lat="46.92466" lon="-0.52774">
        <ele>127.65456852177</ele>
        <time>2021-08-16T19:48:39.165Z</time>
      </trkpt>
      <trkpt lat="46.92399" lon="-0.52623">
        <ele>128.251975971</ele>
        <time>2021-08-16T19:48:40.497Z</time>
      </trkpt>
      <trkpt lat="46.92397" lon="-0.5262">
        <ele>128.8427915305</ele>
        <time>2021-08-16T19:48:41.830Z</time>
      </trkpt>
      <trkpt lat="46.92397" lon="-0.5262">
        <ele>128.90852411243</ele>
        <time>2021-08-16T19:48:43.163Z</time>
      </trkpt>
      <trkpt lat="46.92396" lon="-0.52618">
        <ele>128.82717579679</ele>
        <time>2021-08-16T19:48:44.496Z</time>
      </trkpt>
      <trkpt lat="46.92396" lon="-0.52618">
        <ele>128.60525567066</ele>
        <time>2021-08-16T19:48:45.829Z</time>
      </trkpt>
      <trkpt lat="46.9237" lon="-0.52558">
        <ele>128.27481062629</ele>
        <time>2021-08-16T19:48:47.172Z</time>
      </trkpt>
      <trkpt lat="46.92199" lon="-0.52183">
        <ele>127.53606296796</ele>
        <time>2021-08-16T19:48:48.577Z</time>
      </trkpt>
      <trkpt lat="46.92199" lon="-0.52183">
        <ele>127.03351380236</ele>
        <time>2021-08-16T19:48:49.982Z</time>
      </trkpt>
      <trkpt lat="46.9215" lon="-0.52075">
        <ele>126.49860967038</ele>
        <time>2021-08-16T19:48:51.404Z</time>
      </trkpt>
      <trkpt lat="46.9215" lon="-0.52075">
        <ele>125.95987365182</ele>
        <time>2021-08-16T19:48:52.826Z</time>
      </trkpt>
      <trkpt lat="46.92147" lon="-0.52077">
        <ele>124.92930688876</ele>
        <time>2021-08-16T19:48:54.249Z</time>
      </trkpt>
      <trkpt lat="46.92145" lon="-0.52079">
        <ele>124.46007093177</ele>
        <time>2021-08-16T19:48:55.672Z</time>
      </trkpt>
      <trkpt lat="46.92145" lon="-0.52079">
        <ele>124.02754269134</ele>
        <time>2021-08-16T19:48:57.095Z</time>
      </trkpt>
      <trkpt lat="46.9215" lon="-0.52075">
        <ele>123.63049950885</ele>
        <time>2021-08-16T19:48:58.519Z</time>
      </trkpt>
      <trkpt lat="46.92144" lon="-0.52061">
        <ele>123.26446293738</ele>
        <time>2021-08-16T19:48:59.946Z</time>
      </trkpt>
      <trkpt lat="46.92094" lon="-0.51975">
        <ele>122.95490764582</ele>
        <time>2021-08-16T19:49:01.388Z</time>
      </trkpt>
      <trkpt lat="46.92049" lon="-0.51906">
        <ele>122.75539370283</ele>
        <time>2021-08-16T19:49:02.843Z</time>
      </trkpt>
      <trkpt lat="46.92006" lon="-0.51845">
        <ele>122.52329897104</ele>
        <time>2021-08-16T19:49:04.310Z</time>
      </trkpt>
      <trkpt lat="46.9193" lon="-0.51766">
        <ele>122.27204275234</ele>
        <time>2021-08-16T19:49:05.796Z</time>
      </trkpt>
      <trkpt lat="46.91821" lon="-0.51672">
        <ele>122.23268926043</ele>
        <time>2021-08-16T19:49:07.307Z</time>
      </trkpt>
      <trkpt lat="46.91819" lon="-0.5167">
        <ele>122.06207841598</ele>
        <time>2021-08-16T19:49:08.819Z</time>
      </trkpt>
      <trkpt lat="46.91817" lon="-0.51668">
        <ele>122.03660194021</ele>
        <time>2021-08-16T19:49:10.331Z</time>
      </trkpt>
      <trkpt lat="46.91817" lon="-0.51668">
        <ele>122.05481422265</ele>
        <time>2021-08-16T19:49:11.843Z</time>
      </trkpt>
      <trkpt lat="46.9177" lon="-0.51628">
        <ele>121.99145642829</ele>
        <time>2021-08-16T19:49:13.366Z</time>
      </trkpt>
      <trkpt lat="46.9177" lon="-0.51628">
        <ele>122.14935273941</ele>
        <time>2021-08-16T19:49:14.889Z</time>
      </trkpt>
      <trkpt lat="46.91651" lon="-0.51522">
        <ele>122.29465295604</ele>
        <time>2021-08-16T19:49:16.440Z</time>
      </trkpt>
      <trkpt lat="46.91584" lon="-0.51459">
        <ele>122.73095167576</ele>
        <time>2021-08-16T19:49:18.007Z</time>
      </trkpt>
      <trkpt lat="46.91512" lon="-0.51387">
        <ele>123.37331009232</ele>
        <time>2021-08-16T19:49:19.591Z</time>
      </trkpt>
      <trkpt lat="46.91483" lon="-0.51354">
        <ele>124.01464103751</ele>
        <time>2021-08-16T19:49:21.183Z</time>
      </trkpt>
      <trkpt lat="46.91481" lon="-0.51351">
        <ele>125.38569984487</ele>
        <time>2021-08-16T19:49:22.775Z</time>
      </trkpt>
      <trkpt lat="46.9148" lon="-0.5135">
        <ele>126.18434323972</ele>
        <time>2021-08-16T19:49:24.368Z</time>
      </trkpt>
      <trkpt lat="46.9148" lon="-0.5135">
        <ele>127.05845332571</ele>
        <time>2021-08-16T19:49:25.961Z</time>
      </trkpt>
      <trkpt lat="46.9147" lon="-0.51339">
        <ele>127.98998929616</ele>
        <time>2021-08-16T19:49:27.556Z</time>
      </trkpt>
      <trkpt lat="46.9143" lon="-0.51288">
        <ele>129.05434412887</ele>
        <time>2021-08-16T19:49:29.162Z</time>
      </trkpt>
      <trkpt lat="46.91396" lon="-0.51241">
        <ele>130.1910455567</ele>
        <time>2021-08-16T19:49:30.777Z</time>
      </trkpt>
      <trkpt lat="46.91348" lon="-0.51164">
        <ele>131.25807915452</ele>
        <time>2021-08-16T19:49:32.406Z</time>
      </trkpt>
      <trkpt lat="46.91295" lon="-0.51069">
        <ele>132.22189070349</ele>
        <time>2021-08-16T19:49:34.052Z</time>
      </trkpt>
      <trkpt lat="46.91221" lon="-0.5092">
        <ele>133.36517743742</ele>
        <time>2021-08-16T19:49:35.723Z</time>
      </trkpt>
      <trkpt lat="46.91108" lon="-0.5068">
        <ele>134.46340836296</ele>
        <time>2021-08-16T19:49:37.434Z</time>
      </trkpt>
      <trkpt lat="46.91079" lon="-0.50629">
        <ele>135.29606036957</ele>
        <time>2021-08-16T19:49:39.154Z</time>
      </trkpt>
      <trkpt lat="46.91046" lon="-0.50584">
        <ele>136.02065026932</ele>
        <time>2021-08-16T19:49:40.883Z</time>
      </trkpt>
      <trkpt lat="46.91012" lon="-0.50544">
        <ele>136.62778506399</ele>
        <time>2021-08-16T19:49:42.621Z</time>
      </trkpt>
      <trkpt lat="46.90971" lon="-0.50507">
        <ele>137.07809707654</ele>
        <time>2021-08-16T19:49:44.369Z</time>
      </trkpt>
      <trkpt lat="46.90909" lon="-0.50457">
        <ele>137.38632930956</ele>
        <time>2021-08-16T19:49:46.131Z</time>
      </trkpt>
      <trkpt lat="46.90909" lon="-0.50457">
        <ele>137.64310924546</ele>
        <time>2021-08-16T19:49:47.893Z</time>
      </trkpt>
      <trkpt lat="46.90684" lon="-0.50284">
        <ele>137.84141113861</ele>
        <time>2021-08-16T19:49:49.706Z</time>
      </trkpt>
      <trkpt lat="46.90682" lon="-0.50282">
        <ele>137.83893278506</ele>
        <time>2021-08-16T19:49:51.519Z</time>
      </trkpt>
      <trkpt lat="46.9068" lon="-0.50281">
        <ele>137.69279011427</ele>
        <time>2021-08-16T19:49:53.333Z</time>
      </trkpt>
      <trkpt lat="46.9068" lon="-0.50281">
        <ele>137.45481380842</ele>
        <time>2021-08-16T19:49:55.147Z</time>
      </trkpt>
      <trkpt lat="46.90513" lon="-0.50152">
        <ele>137.126233721</ele>
        <time>2021-08-16T19:49:56.999Z</time>
      </trkpt>
      <trkpt lat="46.90513" lon="-0.50152">
        <ele>136.7202721482</ele>
        <time>2021-08-16T19:49:58.851Z</time>
      </trkpt>
      <trkpt lat="46.90497" lon="-0.50152">
        <ele>136.26659320913</ele>
        <time>2021-08-16T19:50:00.706Z</time>
      </trkpt>
      <trkpt lat="46.90482" lon="-0.50144">
        <ele>135.73932041966</ele>
        <time>2021-08-16T19:50:02.564Z</time>
      </trkpt>
      <trkpt lat="46.90426" lon="-0.50114">
        <ele>135.03846453788</ele>
        <time>2021-08-16T19:50:04.434Z</time>
      </trkpt>
      <trkpt lat="46.90399" lon="-0.50092">
        <ele>134.38145054139</ele>
        <time>2021-08-16T19:50:06.310Z</time>
      </trkpt>
      <trkpt lat="46.9034" lon="-0.50075">
        <ele>133.76450043245</ele>
        <time>2021-08-16T19:50:08.198Z</time>
      </trkpt>
      <trkpt lat="46.90272" lon="-0.5007">
        <ele>133.05744038748</ele>
        <time>2021-08-16T19:50:10.100Z</time>
      </trkpt>
      <trkpt lat="46.90045" lon="-0.5009">
        <ele>132.20198780686</ele>
        <time>2021-08-16T19:50:12.047Z</time>
      </trkpt>
      <trkpt lat="46.89992" lon="-0.50084">
        <ele>131.43814615612</ele>
        <time>2021-08-16T19:50:14.005Z</time>
      </trkpt>
      <trkpt lat="46.89956" lon="-0.50073">
        <ele>130.83934874541</ele>
        <time>2021-08-16T19:50:15.970Z</time>
      </trkpt>
      <trkpt lat="46.8991" lon="-0.50053">
        <ele>130.33412902425</ele>
        <time>2021-08-16T19:50:17.945Z</time>
      </trkpt>
      <trkpt lat="46.89876" lon="-0.50034">
        <ele>130.01261678441</ele>
        <time>2021-08-16T19:50:19.927Z</time>
      </trkpt>
      <trkpt lat="46.89823" lon="-0.49997">
        <ele>129.84203166636</ele>
        <time>2021-08-16T19:50:21.921Z</time>
      </trkpt>
      <trkpt lat="46.89761" lon="-0.49932">
        <ele>129.765773999</ele>
        <time>2021-08-16T19:50:23.930Z</time>
      </trkpt>
      <trkpt lat="46.89729" lon="-0.49887">
        <ele>129.89883176587</ele>
        <time>2021-08-16T19:50:25.948Z</time>
      </trkpt>
      <trkpt lat="46.89567" lon="-0.49619">
        <ele>130.25075453912</ele>
        <time>2021-08-16T19:50:28.015Z</time>
      </trkpt>
      <trkpt lat="46.89538" lon="-0.49579">
        <ele>130.45947397028</ele>
        <time>2021-08-16T19:50:30.090Z</time>
      </trkpt>
      <trkpt lat="46.89537" lon="-0.49578">
        <ele>130.78624293756</ele>
        <time>2021-08-16T19:50:32.165Z</time>
      </trkpt>
      <trkpt lat="46.89536" lon="-0.49577">
        <ele>130.90111234513</ele>
        <time>2021-08-16T19:50:34.241Z</time>
      </trkpt>
      <trkpt lat="46.89534" lon="-0.49575">
        <ele>130.96408064323</ele>
        <time>2021-08-16T19:50:36.317Z</time>
      </trkpt>
      <trkpt lat="46.89534" lon="-0.49575">
        <ele>130.97854958187</ele>
        <time>2021-08-16T19:50:38.393Z</time>
      </trkpt>
      <trkpt lat="46.89514" lon="-0.49552">
        <ele>130.86624699727</ele>
        <time>2021-08-16T19:50:40.474Z</time>
      </trkpt>
      <trkpt lat="46.89486" lon="-0.49525">
        <ele>130.78503187972</ele>
        <time>2021-08-16T19:50:42.562Z</time>
      </trkpt>
      <trkpt lat="46.89457" lon="-0.49502">
        <ele>130.62617887321</ele>
        <time>2021-08-16T19:50:44.657Z</time>
      </trkpt>
      <trkpt lat="46.89428" lon="-0.49481">
        <ele>130.39205826986</ele>
        <time>2021-08-16T19:50:46.758Z</time>
      </trkpt>
      <trkpt lat="46.89385" lon="-0.49457">
        <ele>130.21648606125</ele>
        <time>2021-08-16T19:50:48.868Z</time>
      </trkpt>
      <trkpt lat="46.8934" lon="-0.49441">
        <ele>130.14654960019</ele>
        <time>2021-08-16T19:50:50.987Z</time>
      </trkpt>
      <trkpt lat="46.89207" lon="-0.494">
        <ele>130.2298777874</ele>
        <time>2021-08-16T19:50:53.134Z</time>
      </trkpt>
      <trkpt lat="46.89207" lon="-0.494">
        <ele>130.20959321617</ele>
        <time>2021-08-16T19:50:55.281Z</time>
      </trkpt>
      <trkpt lat="46.89206" lon="-0.494">
        <ele>130.2785708074</ele>
        <time>2021-08-16T19:50:57.428Z</time>
      </trkpt>
      <trkpt lat="46.89204" lon="-0.49399">
        <ele>130.37213076289</ele>
        <time>2021-08-16T19:50:59.575Z</time>
      </trkpt>
      <trkpt lat="46.89202" lon="-0.49399">
        <ele>130.50608433929</ele>
        <time>2021-08-16T19:51:01.723Z</time>
      </trkpt>
      <trkpt lat="46.89202" lon="-0.49399">
        <ele>130.6790536264</ele>
        <time>2021-08-16T19:51:03.871Z</time>
      </trkpt>
      <trkpt lat="46.89206" lon="-0.494">
        <ele>130.88920969577</ele>
        <time>2021-08-16T19:51:06.019Z</time>
      </trkpt>
      <trkpt lat="46.89164" lon="-0.49514">
        <ele>131.29539092147</ele>
        <time>2021-08-16T19:51:08.185Z</time>
      </trkpt>
      <trkpt lat="46.89164" lon="-0.49515">
        <ele>131.57732049696</ele>
        <time>2021-08-16T19:51:10.351Z</time>
      </trkpt>
      <trkpt lat="46.89163" lon="-0.49519">
        <ele>132.22828723165</ele>
        <time>2021-08-16T19:51:12.518Z</time>
      </trkpt>
      <trkpt lat="46.89162" lon="-0.49521">
        <ele>132.60492858867</ele>
        <time>2021-08-16T19:51:14.685Z</time>
      </trkpt>
      <trkpt lat="46.89162" lon="-0.49521">
        <ele>133.02446310339</ele>
        <time>2021-08-16T19:51:16.852Z</time>
      </trkpt>
      <trkpt lat="46.89164" lon="-0.49514">
        <ele>131.29539092147</ele>
        <time>2021-08-16T19:51:19.021Z</time>
      </trkpt>
      <trkpt lat="46.89391" lon="-0.49546">
        <ele>133.95813036121</ele>
        <time>2021-08-16T19:51:21.235Z</time>
      </trkpt>
      <trkpt lat="46.89391" lon="-0.49546">
        <ele>134.55542537846</ele>
        <time>2021-08-16T19:51:23.449Z</time>
      </trkpt>
      <trkpt lat="46.89393" lon="-0.49546">
        <ele>135.96777431578</ele>
        <time>2021-08-16T19:51:25.664Z</time>
      </trkpt>
      <trkpt lat="46.89395" lon="-0.49546">
        <ele>136.7670572915</ele>
        <time>2021-08-16T19:51:27.879Z</time>
      </trkpt>
      <trkpt lat="46.89395" lon="-0.49546">
        <ele>137.59498535754</ele>
        <time>2021-08-16T19:51:30.094Z</time>
      </trkpt>
      <trkpt lat="46.89399" lon="-0.49547">
        <ele>138.44905324838</ele>
        <time>2021-08-16T19:51:32.310Z</time>
      </trkpt>
      <trkpt lat="46.89371" lon="-0.49816">
        <ele>139.64672209356</ele>
        <time>2021-08-16T19:51:34.563Z</time>
      </trkpt>
      <trkpt lat="46.89373" lon="-0.49904">
        <ele>140.55307709474</ele>
        <time>2021-08-16T19:51:36.828Z</time>
      </trkpt>
      <trkpt lat="46.89466" lon="-0.502">
        <ele>141.01485340724</ele>
        <time>2021-08-16T19:51:39.138Z</time>
      </trkpt>
      <trkpt lat="46.89467" lon="-0.50204">
        <ele>141.73010777247</ele>
        <time>2021-08-16T19:51:41.448Z</time>
      </trkpt>
      <trkpt lat="46.89468" lon="-0.50206">
        <ele>141.80756984159</ele>
        <time>2021-08-16T19:51:43.759Z</time>
      </trkpt>
      <trkpt lat="46.89468" lon="-0.50206">
        <ele>141.68705821825</ele>
        <time>2021-08-16T19:51:46.070Z</time>
      </trkpt>
      <trkpt lat="46.89478" lon="-0.50238">
        <ele>141.3310811354</ele>
        <time>2021-08-16T19:51:48.386Z</time>
      </trkpt>
      <trkpt lat="46.89503" lon="-0.50294">
        <ele>140.85689045741</ele>
        <time>2021-08-16T19:51:50.711Z</time>
      </trkpt>
      <trkpt lat="46.89539" lon="-0.50325">
        <ele>140.20542694756</ele>
        <time>2021-08-16T19:51:53.044Z</time>
      </trkpt>
      <trkpt lat="46.89662" lon="-0.50386">
        <ele>139.07290487869</ele>
        <time>2021-08-16T19:51:55.403Z</time>
      </trkpt>
      <trkpt lat="46.89662" lon="-0.50386">
        <ele>138.13646504846</ele>
        <time>2021-08-16T19:51:57.762Z</time>
      </trkpt>
      <trkpt lat="46.89664" lon="-0.50387">
        <ele>136.0774190128</ele>
        <time>2021-08-16T19:52:00.122Z</time>
      </trkpt>
      <trkpt lat="46.89667" lon="-0.50388">
        <ele>135.01877296713</ele>
        <time>2021-08-16T19:52:02.482Z</time>
      </trkpt>
      <trkpt lat="46.89678" lon="-0.5039">
        <ele>133.98509496746</ele>
        <time>2021-08-16T19:52:04.844Z</time>
      </trkpt>
      <trkpt lat="46.89779" lon="-0.50436">
        <ele>132.82612534733</ele>
        <time>2021-08-16T19:52:07.228Z</time>
      </trkpt>
      <trkpt lat="46.89787" lon="-0.50444">
        <ele>131.96743577131</ele>
        <time>2021-08-16T19:52:09.613Z</time>
      </trkpt>
      <trkpt lat="46.89789" lon="-0.5045">
        <ele>131.20855614853</ele>
        <time>2021-08-16T19:52:11.999Z</time>
      </trkpt>
      <trkpt lat="46.8979" lon="-0.50454">
        <ele>130.18808683497</ele>
        <time>2021-08-16T19:52:14.386Z</time>
      </trkpt>
      <trkpt lat="46.89791" lon="-0.50457">
        <ele>129.97344973111</ele>
        <time>2021-08-16T19:52:16.773Z</time>
      </trkpt>
      <trkpt lat="46.89772" lon="-0.50563">
        <ele>129.84955326777</ele>
        <time>2021-08-16T19:52:19.175Z</time>
      </trkpt>
      <trkpt lat="46.89764" lon="-0.50591">
        <ele>130.18211095785</ele>
        <time>2021-08-16T19:52:21.582Z</time>
      </trkpt>
      <trkpt lat="46.89754" lon="-0.50615">
        <ele>130.78383093986</ele>
        <time>2021-08-16T19:52:23.992Z</time>
      </trkpt>
      <trkpt lat="46.89735" lon="-0.50644">
        <ele>131.59779265367</ele>
        <time>2021-08-16T19:52:26.408Z</time>
      </trkpt>
      <trkpt lat="46.89735" lon="-0.50645">
        <ele>132.61471622693</ele>
        <time>2021-08-16T19:52:28.824Z</time>
      </trkpt>
      <trkpt lat="46.89733" lon="-0.50647">
        <ele>135.35482420231</ele>
        <time>2021-08-16T19:52:31.241Z</time>
      </trkpt>
      <trkpt lat="46.89731" lon="-0.50649">
        <ele>137.04178307813</ele>
        <time>2021-08-16T19:52:33.658Z</time>
      </trkpt>
      <trkpt lat="46.89731" lon="-0.50649">
        <ele>138.89742074964</ele>
        <time>2021-08-16T19:52:36.075Z</time>
      </trkpt>
      <trkpt lat="46.89277" lon="-0.51196">
        <ele>141.68037418391</ele>
        <time>2021-08-16T19:52:38.610Z</time>
      </trkpt>
      <trkpt lat="46.89262" lon="-0.51209">
        <ele>143.71872085101</ele>
        <time>2021-08-16T19:52:41.148Z</time>
      </trkpt>
      <trkpt lat="46.89228" lon="-0.51217">
        <ele>145.81982579748</ele>
        <time>2021-08-16T19:52:43.693Z</time>
      </trkpt>
      <trkpt lat="46.89228" lon="-0.51217">
        <ele>147.81766474175</ele>
        <time>2021-08-16T19:52:46.238Z</time>
      </trkpt>
      <trkpt lat="46.89225" lon="-0.51218">
        <ele>151.63137392771</ele>
        <time>2021-08-16T19:52:48.784Z</time>
      </trkpt>
      <trkpt lat="46.89223" lon="-0.51219">
        <ele>153.43060545018</ele>
        <time>2021-08-16T19:52:51.330Z</time>
      </trkpt>
      <trkpt lat="46.89223" lon="-0.51219">
        <ele>155.14805403497</ele>
        <time>2021-08-16T19:52:53.876Z</time>
      </trkpt>
      <trkpt lat="46.89216" lon="-0.51221">
        <ele>156.81841105464</ele>
        <time>2021-08-16T19:52:56.424Z</time>
      </trkpt>
      <trkpt lat="46.89216" lon="-0.51221">
        <ele>158.39025013258</ele>
        <time>2021-08-16T19:52:58.972Z</time>
      </trkpt>
      <trkpt lat="46.89193" lon="-0.51215">
        <ele>159.94199875368</ele>
        <time>2021-08-16T19:53:01.524Z</time>
      </trkpt>
      <trkpt lat="46.89126" lon="-0.51178">
        <ele>161.48193740438</ele>
        <time>2021-08-16T19:53:04.091Z</time>
      </trkpt>
      <trkpt lat="46.89088" lon="-0.51149">
        <ele>162.8446099181</ele>
        <time>2021-08-16T19:53:06.666Z</time>
      </trkpt>
      <trkpt lat="46.89027" lon="-0.51087">
        <ele>164.147428818</ele>
        <time>2021-08-16T19:53:09.256Z</time>
      </trkpt>
      <trkpt lat="46.89006" lon="-0.51057">
        <ele>165.20638707068</ele>
        <time>2021-08-16T19:53:11.852Z</time>
      </trkpt>
      <trkpt lat="46.88993" lon="-0.5103">
        <ele>166.07051407335</ele>
        <time>2021-08-16T19:53:14.453Z</time>
      </trkpt>
      <trkpt lat="46.88977" lon="-0.50926">
        <ele>166.75786991545</ele>
        <time>2021-08-16T19:53:17.068Z</time>
      </trkpt>
      <trkpt lat="46.88976" lon="-0.50922">
        <ele>167.16050221164</ele>
        <time>2021-08-16T19:53:19.684Z</time>
      </trkpt>
      <trkpt lat="46.88976" lon="-0.50919">
        <ele>166.97927374326</ele>
        <time>2021-08-16T19:53:22.300Z</time>
      </trkpt>
      <trkpt lat="46.88976" lon="-0.50919">
        <ele>166.55094514731</ele>
        <time>2021-08-16T19:53:24.916Z</time>
      </trkpt>
      <trkpt lat="46.88976" lon="-0.50919">
        <ele>166.97927374326</ele>
        <time>2021-08-16T19:53:27.532Z</time>
      </trkpt>
      <trkpt lat="46.8895" lon="-0.50904">
        <ele>164.99911730279</ele>
        <time>2021-08-16T19:53:30.154Z</time>
      </trkpt>
      <trkpt lat="46.88946" lon="-0.5086">
        <ele>163.8676593239</ele>
        <time>2021-08-16T19:53:32.782Z</time>
      </trkpt>
      <trkpt lat="46.88951" lon="-0.50789">
        <ele>162.56961890883</ele>
        <time>2021-08-16T19:53:35.420Z</time>
      </trkpt>
      <trkpt lat="46.88869" lon="-0.50789">
        <ele>161.17571344444</ele>
        <time>2021-08-16T19:53:38.074Z</time>
      </trkpt>
      <trkpt lat="46.88867" lon="-0.50788">
        <ele>159.951121831</ele>
        <time>2021-08-16T19:53:40.728Z</time>
      </trkpt>
      <trkpt lat="46.88867" lon="-0.50788">
        <ele>158.7737744316</ele>
        <time>2021-08-16T19:53:43.382Z</time>
      </trkpt>
      <trkpt lat="46.88865" lon="-0.50787">
        <ele>156.69066100294</ele>
        <time>2021-08-16T19:53:46.037Z</time>
      </trkpt>
      <trkpt lat="46.88863" lon="-0.50786">
        <ele>155.84669290626</ele>
        <time>2021-08-16T19:53:48.692Z</time>
      </trkpt>
      <trkpt lat="46.88863" lon="-0.50786">
        <ele>155.17941803605</ele>
        <time>2021-08-16T19:53:51.347Z</time>
      </trkpt>
      <trkpt lat="46.88854" lon="-0.50782">
        <ele>154.65884637526</ele>
        <time>2021-08-16T19:53:54.004Z</time>
      </trkpt>
      <trkpt lat="46.88806" lon="-0.50796">
        <ele>154.31724473807</ele>
        <time>2021-08-16T19:53:56.671Z</time>
      </trkpt>
      <trkpt lat="46.88748" lon="-0.50838">
        <ele>154.15017472692</ele>
        <time>2021-08-16T19:53:59.351Z</time>
      </trkpt>
      <trkpt lat="46.8859" lon="-0.51075">
        <ele>154.52389987503</ele>
        <time>2021-08-16T19:54:02.076Z</time>
      </trkpt>
      <trkpt lat="46.88576" lon="-0.51093">
        <ele>154.96337671519</ele>
        <time>2021-08-16T19:54:04.805Z</time>
      </trkpt>
      <trkpt lat="46.88577" lon="-0.51094">
        <ele>155.56724610502</ele>
        <time>2021-08-16T19:54:07.534Z</time>
      </trkpt>
      <trkpt lat="46.88578" lon="-0.51097">
        <ele>157.31453629416</ele>
        <time>2021-08-16T19:54:10.264Z</time>
      </trkpt>
      <trkpt lat="46.88579" lon="-0.511">
        <ele>158.40856560392</ele>
        <time>2021-08-16T19:54:12.994Z</time>
      </trkpt>
      <trkpt lat="46.88579" lon="-0.511">
        <ele>159.60814927571</ele>
        <time>2021-08-16T19:54:15.724Z</time>
      </trkpt>
      <trkpt lat="46.88659" lon="-0.51365">
        <ele>161.42445541945</ele>
        <time>2021-08-16T19:54:18.494Z</time>
      </trkpt>
      <trkpt lat="46.88665" lon="-0.5137">
        <ele>162.68501081476</ele>
        <time>2021-08-16T19:54:21.265Z</time>
      </trkpt>
      <trkpt lat="46.88667" lon="-0.51372">
        <ele>165.11016278477</ele>
        <time>2021-08-16T19:54:24.037Z</time>
      </trkpt>
      <trkpt lat="46.88669" lon="-0.51374">
        <ele>166.22820968919</ele>
        <time>2021-08-16T19:54:26.809Z</time>
      </trkpt>
      <trkpt lat="46.88609" lon="-0.51491">
        <ele>167.19626629848</ele>
        <time>2021-08-16T19:54:29.601Z</time>
      </trkpt>
      <trkpt lat="46.88541" lon="-0.51567">
        <ele>168.07678457198</ele>
        <time>2021-08-16T19:54:32.410Z</time>
      </trkpt>
      <trkpt lat="46.88475" lon="-0.51651">
        <ele>168.99472436006</ele>
        <time>2021-08-16T19:54:35.237Z</time>
      </trkpt>
      <trkpt lat="46.88353" lon="-0.51762">
        <ele>170.01240241134</ele>
        <time>2021-08-16T19:54:38.092Z</time>
      </trkpt>
      <trkpt lat="46.88323" lon="-0.51793">
        <ele>170.70050670278</ele>
        <time>2021-08-16T19:54:40.955Z</time>
      </trkpt>
      <trkpt lat="46.88272" lon="-0.51888">
        <ele>171.2784765812</ele>
        <time>2021-08-16T19:54:43.834Z</time>
      </trkpt>
      <trkpt lat="46.88214" lon="-0.51977">
        <ele>171.89930682211</ele>
        <time>2021-08-16T19:54:46.730Z</time>
      </trkpt>
      <trkpt lat="46.88212" lon="-0.5198">
        <ele>172.74380146608</ele>
        <time>2021-08-16T19:54:49.627Z</time>
      </trkpt>
      <trkpt lat="46.88212" lon="-0.51981">
        <ele>173.07766611665</ele>
        <time>2021-08-16T19:54:52.524Z</time>
      </trkpt>
      <trkpt lat="46.88211" lon="-0.51983">
        <ele>173.37774728998</ele>
        <time>2021-08-16T19:54:55.421Z</time>
      </trkpt>
      <trkpt lat="46.88211" lon="-0.51983">
        <ele>173.652280786</ele>
        <time>2021-08-16T19:54:58.318Z</time>
      </trkpt>
      <trkpt lat="46.88187" lon="-0.5204">
        <ele>173.95796981464</ele>
        <time>2021-08-16T19:55:01.224Z</time>
      </trkpt>
      <trkpt lat="46.88154" lon="-0.52166">
        <ele>174.1987795759</ele>
        <time>2021-08-16T19:55:04.149Z</time>
      </trkpt>
      <trkpt lat="46.88095" lon="-0.52308">
        <ele>174.48212813264</ele>
        <time>2021-08-16T19:55:07.097Z</time>
      </trkpt>
      <trkpt lat="46.88064" lon="-0.52359">
        <ele>174.8302741533</ele>
        <time>2021-08-16T19:55:10.054Z</time>
      </trkpt>
      <trkpt lat="46.88033" lon="-0.52389">
        <ele>175.37080877408</ele>
        <time>2021-08-16T19:55:13.019Z</time>
      </trkpt>
      <trkpt lat="46.88006" lon="-0.52411">
        <ele>175.98716981697</ele>
        <time>2021-08-16T19:55:15.990Z</time>
      </trkpt>
      <trkpt lat="46.87996" lon="-0.52425">
        <ele>176.5530292566</ele>
        <time>2021-08-16T19:55:18.963Z</time>
      </trkpt>
      <trkpt lat="46.87989" lon="-0.52453">
        <ele>177.13762088683</ele>
        <time>2021-08-16T19:55:21.941Z</time>
      </trkpt>
      <trkpt lat="46.87955" lon="-0.52529">
        <ele>177.78789419248</ele>
        <time>2021-08-16T19:55:24.931Z</time>
      </trkpt>
      <trkpt lat="46.87917" lon="-0.5264">
        <ele>178.38559618475</ele>
        <time>2021-08-16T19:55:27.938Z</time>
      </trkpt>
      <trkpt lat="46.87867" lon="-0.52809">
        <ele>178.98091434313</ele>
        <time>2021-08-16T19:55:30.970Z</time>
      </trkpt>
      <trkpt lat="46.87836" lon="-0.5289">
        <ele>179.68777194965</ele>
        <time>2021-08-16T19:55:34.015Z</time>
      </trkpt>
      <trkpt lat="46.87811" lon="-0.52964">
        <ele>180.23851254616</ele>
        <time>2021-08-16T19:55:37.071Z</time>
      </trkpt>
      <trkpt lat="46.87788" lon="-0.53024">
        <ele>180.68829696161</ele>
        <time>2021-08-16T19:55:40.137Z</time>
      </trkpt>
      <trkpt lat="46.8778" lon="-0.53049">
        <ele>181.11344683215</ele>
        <time>2021-08-16T19:55:43.206Z</time>
      </trkpt>
      <trkpt lat="46.87774" lon="-0.53082">
        <ele>181.51341846353</ele>
        <time>2021-08-16T19:55:46.280Z</time>
      </trkpt>
      <trkpt lat="46.87773" lon="-0.53194">
        <ele>181.71541573784</ele>
        <time>2021-08-16T19:55:49.369Z</time>
      </trkpt>
      <trkpt lat="46.87764" lon="-0.53285">
        <ele>182.02038849232</ele>
        <time>2021-08-16T19:55:52.471Z</time>
      </trkpt>
      <trkpt lat="46.87753" lon="-0.53329">
        <ele>182.10805887042</ele>
        <time>2021-08-16T19:55:55.580Z</time>
      </trkpt>
      <trkpt lat="46.87752" lon="-0.53332">
        <ele>182.20980986117</ele>
        <time>2021-08-16T19:55:58.689Z</time>
      </trkpt>
      <trkpt lat="46.87752" lon="-0.53333">
        <ele>182.1963780788</ele>
        <time>2021-08-16T19:56:01.798Z</time>
      </trkpt>
      <trkpt lat="46.87751" lon="-0.53335">
        <ele>182.1501342165</ele>
        <time>2021-08-16T19:56:04.908Z</time>
      </trkpt>
      <trkpt lat="46.87737" lon="-0.53362">
        <ele>182.06775538196</ele>
        <time>2021-08-16T19:56:08.022Z</time>
      </trkpt>
      <trkpt lat="46.8771" lon="-0.53451">
        <ele>182.0017829741</ele>
        <time>2021-08-16T19:56:11.150Z</time>
      </trkpt>
      <trkpt lat="46.87705" lon="-0.53466">
        <ele>181.93210413141</ele>
        <time>2021-08-16T19:56:14.280Z</time>
      </trkpt>
      <trkpt lat="46.87706" lon="-0.53472">
        <ele>181.88250702129</ele>
        <time>2021-08-16T19:56:17.411Z</time>
      </trkpt>
      <trkpt lat="46.87706" lon="-0.53476">
        <ele>181.8401557572</ele>
        <time>2021-08-16T19:56:20.542Z</time>
      </trkpt>
      <trkpt lat="46.87706" lon="-0.53479">
        <ele>181.85362653365</ele>
        <time>2021-08-16T19:56:23.674Z</time>
      </trkpt>
      <trkpt lat="46.87706" lon="-0.53479">
        <ele>181.88945216139</ele>
        <time>2021-08-16T19:56:26.806Z</time>
      </trkpt>
      <trkpt lat="46.87706" lon="-0.53479">
        <ele>181.85362653365</ele>
        <time>2021-08-16T19:56:29.938Z</time>
      </trkpt>
      <trkpt lat="46.87741" lon="-0.53477">
        <ele>182.07484262928</ele>
        <time>2021-08-16T19:56:33.076Z</time>
      </trkpt>
      <trkpt lat="46.87755" lon="-0.53479">
        <ele>182.17506475716</ele>
        <time>2021-08-16T19:56:36.217Z</time>
      </trkpt>
      <trkpt lat="46.8777" lon="-0.53485">
        <ele>182.27387619645</ele>
        <time>2021-08-16T19:56:39.361Z</time>
      </trkpt>
      <trkpt lat="46.87765" lon="-0.53505">
        <ele>182.32850423577</ele>
        <time>2021-08-16T19:56:42.508Z</time>
      </trkpt>
      <trkpt lat="46.87761" lon="-0.53513">
        <ele>182.36760892987</ele>
        <time>2021-08-16T19:56:45.657Z</time>
      </trkpt>
      <trkpt lat="46.87756" lon="-0.53517">
        <ele>182.3871786914</ele>
        <time>2021-08-16T19:56:48.807Z</time>
      </trkpt>
      <trkpt lat="46.87743" lon="-0.53521">
        <ele>182.37588253345</ele>
        <time>2021-08-16T19:56:51.959Z</time>
      </trkpt>
      <trkpt lat="46.87729" lon="-0.53524">
        <ele>182.34651830382</ele>
        <time>2021-08-16T19:56:55.114Z</time>
      </trkpt>
      <trkpt lat="46.87728" lon="-0.53525">
        <ele>182.32549377001</ele>
        <time>2021-08-16T19:56:58.270Z</time>
      </trkpt>
      <trkpt lat="46.87725" lon="-0.53527">
        <ele>182.24945404606</ele>
        <time>2021-08-16T19:57:01.426Z</time>
      </trkpt>
      <trkpt lat="46.87723" lon="-0.53528">
        <ele>182.19492730205</ele>
        <time>2021-08-16T19:57:04.583Z</time>
      </trkpt>
      <trkpt lat="46.87723" lon="-0.53528">
        <ele>182.13423365392</ele>
        <time>2021-08-16T19:57:07.740Z</time>
      </trkpt>
      <trkpt lat="46.87712" lon="-0.53536">
        <ele>182.05591405665</ele>
        <time>2021-08-16T19:57:10.899Z</time>
      </trkpt>
      <trkpt lat="46.8767" lon="-0.53586">
        <ele>182.03460774055</ele>
        <time>2021-08-16T19:57:14.069Z</time>
      </trkpt>
      <trkpt lat="46.87668" lon="-0.53588">
        <ele>181.82409960257</ele>
        <time>2021-08-16T19:57:17.239Z</time>
      </trkpt>
      <trkpt lat="46.87667" lon="-0.5359">
        <ele>181.69702576565</ele>
        <time>2021-08-16T19:57:20.410Z</time>
      </trkpt>
      <trkpt lat="46.87667" lon="-0.5359">
        <ele>181.56358506337</ele>
        <time>2021-08-16T19:57:23.581Z</time>
      </trkpt>
      <trkpt lat="46.87636" lon="-0.53628">
        <ele>181.37307267137</ele>
        <time>2021-08-16T19:57:26.760Z</time>
      </trkpt>
      <trkpt lat="46.87608" lon="-0.53651">
        <ele>181.21256802063</ele>
        <time>2021-08-16T19:57:29.945Z</time>
      </trkpt>
      <trkpt lat="46.87608" lon="-0.53651">
        <ele>181.09743999056</ele>
        <time>2021-08-16T19:57:33.130Z</time>
      </trkpt>
      <trkpt lat="46.876" lon="-0.53656">
        <ele>181.00208289941</ele>
        <time>2021-08-16T19:57:36.317Z</time>
      </trkpt>
      <trkpt lat="46.876" lon="-0.53657">
        <ele>180.94250850796</ele>
        <time>2021-08-16T19:57:39.504Z</time>
      </trkpt>
      <trkpt lat="46.87601" lon="-0.53661">
        <ele>180.93343178702</ele>
        <time>2021-08-16T19:57:42.692Z</time>
      </trkpt>
      <trkpt lat="46.87601" lon="-0.53661">
        <ele>180.98425909873</ele>
        <time>2021-08-16T19:57:45.880Z</time>
      </trkpt>
      <trkpt lat="46.876" lon="-0.53664">
        <ele>181.07539189414</ele>
        <time>2021-08-16T19:57:49.068Z</time>
      </trkpt>
      <trkpt lat="46.876" lon="-0.53664">
        <ele>181.20595112376</ele>
        <time>2021-08-16T19:57:52.256Z</time>
      </trkpt>
      <trkpt lat="46.87599" lon="-0.53669">
        <ele>181.37753917498</ele>
        <time>2021-08-16T19:57:55.445Z</time>
      </trkpt>
      <trkpt lat="46.87586" lon="-0.53698">
        <ele>181.66065320764</ele>
        <time>2021-08-16T19:57:58.639Z</time>
      </trkpt>
      <trkpt lat="46.87566" lon="-0.53743">
        <ele>181.92797751545</ele>
        <time>2021-08-16T19:58:01.840Z</time>
      </trkpt>
      <trkpt lat="46.87559" lon="-0.53756">
        <ele>182.17268708204</ele>
        <time>2021-08-16T19:58:05.043Z</time>
      </trkpt>
      <trkpt lat="46.87554" lon="-0.53766">
        <ele>182.41842784711</ele>
        <time>2021-08-16T19:58:08.248Z</time>
      </trkpt>
      <trkpt lat="46.87547" lon="-0.53788">
        <ele>182.67308156118</ele>
        <time>2021-08-16T19:58:11.456Z</time>
      </trkpt>
      <trkpt lat="46.87532" lon="-0.5384">
        <ele>182.9499385587</ele>
        <time>2021-08-16T19:58:14.672Z</time>
      </trkpt>
      <trkpt lat="46.87531" lon="-0.53844">
        <ele>183.56819902689</ele>
        <time>2021-08-16T19:58:17.889Z</time>
      </trkpt>
      <trkpt lat="46.8753" lon="-0.53847">
        <ele>183.90583937392</ele>
        <time>2021-08-16T19:58:21.106Z</time>
      </trkpt>
      <trkpt lat="46.8753" lon="-0.53847">
        <ele>184.25582195819</ele>
        <time>2021-08-16T19:58:24.323Z</time>
      </trkpt>
      <trkpt lat="46.87495" lon="-0.53969">
        <ele>184.65504205064</ele>
        <time>2021-08-16T19:58:27.558Z</time>
      </trkpt>
      <trkpt lat="46.87485" lon="-0.53983">
        <ele>185.02418073742</ele>
        <time>2021-08-16T19:58:30.796Z</time>
      </trkpt>
      <trkpt lat="46.87487" lon="-0.53993">
        <ele>185.40539483175</ele>
        <time>2021-08-16T19:58:34.035Z</time>
      </trkpt>
      <trkpt lat="46.87476" lon="-0.5403">
        <ele>185.78691295072</ele>
        <time>2021-08-16T19:58:37.280Z</time>
      </trkpt>
      <trkpt lat="46.87454" lon="-0.54126">
        <ele>186.34267353343</ele>
        <time>2021-08-16T19:58:40.539Z</time>
      </trkpt>
      <trkpt lat="46.87453" lon="-0.54128">
        <ele>186.97297291463</ele>
        <time>2021-08-16T19:58:43.798Z</time>
      </trkpt>
      <trkpt lat="46.87454" lon="-0.54129">
        <ele>187.21823747561</ele>
        <time>2021-08-16T19:58:47.057Z</time>
      </trkpt>
      <trkpt lat="46.87455" lon="-0.54132">
        <ele>187.41211196726</ele>
        <time>2021-08-16T19:58:50.317Z</time>
      </trkpt>
      <trkpt lat="46.87455" lon="-0.54132">
        <ele>187.55517322941</ele>
        <time>2021-08-16T19:58:53.577Z</time>
      </trkpt>
      <trkpt lat="46.87459" lon="-0.54144">
        <ele>187.64456601986</ele>
        <time>2021-08-16T19:58:56.839Z</time>
      </trkpt>
      <trkpt lat="46.87476" lon="-0.54206">
        <ele>187.71745236953</ele>
        <time>2021-08-16T19:59:00.110Z</time>
      </trkpt>
      <trkpt lat="46.87486" lon="-0.54232">
        <ele>187.74140673861</ele>
        <time>2021-08-16T19:59:03.385Z</time>
      </trkpt>
      <trkpt lat="46.87491" lon="-0.54237">
        <ele>187.74707604998</ele>
        <time>2021-08-16T19:59:06.661Z</time>
      </trkpt>
      <trkpt lat="46.87493" lon="-0.5424">
        <ele>187.72117816275</ele>
        <time>2021-08-16T19:59:09.938Z</time>
      </trkpt>
      <trkpt lat="46.87495" lon="-0.54242">
        <ele>187.72084387249</ele>
        <time>2021-08-16T19:59:13.215Z</time>
      </trkpt>
      <trkpt lat="46.87495" lon="-0.54242">
        <ele>187.75395150064</ele>
        <time>2021-08-16T19:59:16.492Z</time>
      </trkpt>
      <trkpt lat="46.87503" lon="-0.54249">
        <ele>187.8224584959</ele>
        <time>2021-08-16T19:59:19.771Z</time>
      </trkpt>
      <trkpt lat="46.87573" lon="-0.54286">
        <ele>187.88069122646</ele>
        <time>2021-08-16T19:59:23.065Z</time>
      </trkpt>
      <trkpt lat="46.87626" lon="-0.54322">
        <ele>188.17217620818</ele>
        <time>2021-08-16T19:59:26.371Z</time>
      </trkpt>
      <trkpt lat="46.87628" lon="-0.54324">
        <ele>188.89796538929</ele>
        <time>2021-08-16T19:59:29.677Z</time>
      </trkpt>
      <trkpt lat="46.8763" lon="-0.54325">
        <ele>189.40313194406</ele>
        <time>2021-08-16T19:59:32.984Z</time>
      </trkpt>
      <trkpt lat="46.8763" lon="-0.54325">
        <ele>190.00154318786</ele>
        <time>2021-08-16T19:59:36.291Z</time>
      </trkpt>
      <trkpt lat="46.87553" lon="-0.54441">
        <ele>190.99579994753</ele>
        <time>2021-08-16T19:59:39.620Z</time>
      </trkpt>
      <trkpt lat="46.87537" lon="-0.54471">
        <ele>191.76025234431</ele>
        <time>2021-08-16T19:59:42.954Z</time>
      </trkpt>
      <trkpt lat="46.87537" lon="-0.54471">
        <ele>193.30726173519</ele>
        <time>2021-08-16T19:59:46.288Z</time>
      </trkpt>
      <trkpt lat="46.87538" lon="-0.54475">
        <ele>194.10134204953</ele>
        <time>2021-08-16T19:59:49.622Z</time>
      </trkpt>
      <trkpt lat="46.87539" lon="-0.54478">
        <ele>194.89884004473</ele>
        <time>2021-08-16T19:59:52.957Z</time>
      </trkpt>
      <trkpt lat="46.87539" lon="-0.54478">
        <ele>195.69815022824</ele>
        <time>2021-08-16T19:59:56.292Z</time>
      </trkpt>
      <trkpt lat="46.87554" lon="-0.54521">
        <ele>196.51562106</ele>
        <time>2021-08-16T19:59:59.634Z</time>
      </trkpt>
      <trkpt lat="46.87558" lon="-0.54555">
        <ele>197.33826603309</ele>
        <time>2021-08-16T20:00:02.980Z</time>
      </trkpt>
      <trkpt lat="46.87557" lon="-0.54583">
        <ele>198.0794896392</ele>
        <time>2021-08-16T20:00:06.330Z</time>
      </trkpt>
      <trkpt lat="46.87552" lon="-0.54599">
        <ele>198.83289916157</ele>
        <time>2021-08-16T20:00:09.683Z</time>
      </trkpt>
      <trkpt lat="46.87357" lon="-0.54817">
        <ele>200.51069434416</ele>
        <time>2021-08-16T20:00:13.085Z</time>
      </trkpt>
      <trkpt lat="46.87357" lon="-0.54817">
        <ele>201.06796260874</ele>
        <time>2021-08-16T20:00:16.487Z</time>
      </trkpt>
      <trkpt lat="46.87338" lon="-0.54839">
        <ele>201.52039214212</ele>
        <time>2021-08-16T20:00:19.894Z</time>
      </trkpt>
      <trkpt lat="46.87338" lon="-0.54839">
        <ele>201.85950213142</ele>
        <time>2021-08-16T20:00:23.301Z</time>
      </trkpt>
      <trkpt lat="46.87392" lon="-0.54917">
        <ele>202.04897021086</ele>
        <time>2021-08-16T20:00:26.723Z</time>
      </trkpt>
      <trkpt lat="46.87392" lon="-0.54917">
        <ele>202.16356496479</ele>
        <time>2021-08-16T20:00:30.145Z</time>
      </trkpt>
      <trkpt lat="46.8747" lon="-0.54944">
        <ele>202.09000346857</ele>
        <time>2021-08-16T20:00:33.583Z</time>
      </trkpt>
      <trkpt lat="46.8747" lon="-0.54944">
        <ele>202.0199142448</ele>
        <time>2021-08-16T20:00:37.021Z</time>
      </trkpt>
      <trkpt lat="46.87525" lon="-0.5499">
        <ele>201.76624704837</ele>
        <time>2021-08-16T20:00:40.472Z</time>
      </trkpt>
      <trkpt lat="46.87525" lon="-0.5499">
        <ele>201.57351353504</ele>
        <time>2021-08-16T20:00:43.923Z</time>
      </trkpt>
      <trkpt lat="46.87662" lon="-0.55242">
        <ele>201.45733978793</ele>
        <time>2021-08-16T20:00:47.418Z</time>
      </trkpt>
      <trkpt lat="46.87662" lon="-0.55242">
        <ele>201.18243524256</ele>
        <time>2021-08-16T20:00:50.913Z</time>
      </trkpt>
      <trkpt lat="46.87662" lon="-0.55241">
        <ele>200.86959389691</ele>
        <time>2021-08-16T20:00:54.408Z</time>
      </trkpt>
      <trkpt lat="46.87662" lon="-0.55241">
        <ele>200.52250931261</ele>
        <time>2021-08-16T20:00:57.903Z</time>
      </trkpt>
      <trkpt lat="46.87691" lon="-0.55296">
        <ele>200.19724565343</ele>
        <time>2021-08-16T20:01:01.407Z</time>
      </trkpt>
      <trkpt lat="46.87821" lon="-0.55536">
        <ele>199.80499950251</ele>
        <time>2021-08-16T20:01:04.953Z</time>
      </trkpt>
      <trkpt lat="46.87889" lon="-0.55716">
        <ele>199.18699952233</ele>
        <time>2021-08-16T20:01:08.527Z</time>
      </trkpt>
      <trkpt lat="46.87899" lon="-0.55753">
        <ele>198.7335717481</ele>
        <time>2021-08-16T20:01:12.107Z</time>
      </trkpt>
      <trkpt lat="46.87901" lon="-0.55782">
        <ele>198.29203361636</ele>
        <time>2021-08-16T20:01:15.691Z</time>
      </trkpt>
      <trkpt lat="46.87894" lon="-0.55825">
        <ele>197.94904331093</ele>
        <time>2021-08-16T20:01:19.281Z</time>
      </trkpt>
      <trkpt lat="46.87895" lon="-0.55861">
        <ele>197.60335463104</ele>
        <time>2021-08-16T20:01:22.876Z</time>
      </trkpt>
      <trkpt lat="46.87906" lon="-0.55912">
        <ele>197.24417057777</ele>
        <time>2021-08-16T20:01:26.478Z</time>
      </trkpt>
      <trkpt lat="46.87906" lon="-0.55912">
        <ele>196.95373168001</ele>
        <time>2021-08-16T20:01:30.080Z</time>
      </trkpt>
      <trkpt lat="46.87906" lon="-0.55912">
        <ele>196.6868891988</ele>
        <time>2021-08-16T20:01:33.682Z</time>
      </trkpt>
      <trkpt lat="46.87906" lon="-0.55912">
        <ele>196.43615023657</ele>
        <time>2021-08-16T20:01:37.284Z</time>
      </trkpt>
      <trkpt lat="46.87905" lon="-0.55914">
        <ele>196.19219709257</ele>
        <time>2021-08-16T20:01:40.887Z</time>
      </trkpt>
      <trkpt lat="46.87906" lon="-0.55912">
        <ele>196.43615023657</ele>
        <time>2021-08-16T20:01:44.490Z</time>
      </trkpt>
      <trkpt lat="46.87907" lon="-0.55913">
        <ele>195.68302136704</ele>
        <time>2021-08-16T20:01:48.093Z</time>
      </trkpt>
      <trkpt lat="46.87909" lon="-0.55916">
        <ele>195.39726842057</ele>
        <time>2021-08-16T20:01:51.697Z</time>
      </trkpt>
      <trkpt lat="46.87909" lon="-0.55916">
        <ele>195.07890393547</ele>
        <time>2021-08-16T20:01:55.301Z</time>
      </trkpt>
      <trkpt lat="46.87906" lon="-0.55912">
        <ele>196.6868891988</ele>
        <time>2021-08-16T20:01:58.905Z</time>
      </trkpt>
      <trkpt lat="46.87955" lon="-0.55845">
        <ele>194.2255741238</ele>
        <time>2021-08-16T20:02:02.523Z</time>
      </trkpt>
      <trkpt lat="46.88008" lon="-0.55799">
        <ele>193.66272346878</ele>
        <time>2021-08-16T20:02:06.153Z</time>
      </trkpt>
      <trkpt lat="46.88008" lon="-0.55799">
        <ele>193.19299838199</ele>
        <time>2021-08-16T20:02:09.783Z</time>
      </trkpt>
      <trkpt lat="46.88009" lon="-0.55799">
        <ele>192.69330998065</ele>
        <time>2021-08-16T20:02:13.413Z</time>
      </trkpt>
      <trkpt lat="46.8801" lon="-0.55798">
        <ele>192.16120765303</ele>
        <time>2021-08-16T20:02:17.044Z</time>
      </trkpt>
      <trkpt lat="46.88012" lon="-0.55798">
        <ele>191.59454897232</ele>
        <time>2021-08-16T20:02:20.675Z</time>
      </trkpt>
      <trkpt lat="46.88015" lon="-0.55798">
        <ele>190.99222478203</ele>
        <time>2021-08-16T20:02:24.307Z</time>
      </trkpt>
      <trkpt lat="46.88015" lon="-0.55798">
        <ele>190.35014269586</ele>
        <time>2021-08-16T20:02:27.939Z</time>
      </trkpt>
      <trkpt lat="46.88027" lon="-0.55797">
        <ele>189.66962544914</ele>
        <time>2021-08-16T20:02:31.573Z</time>
      </trkpt>
      <trkpt lat="46.88082" lon="-0.55815">
        <ele>188.84636484573</ele>
        <time>2021-08-16T20:02:35.218Z</time>
      </trkpt>
      <trkpt lat="46.88088" lon="-0.55812">
        <ele>188.09393963846</ele>
        <time>2021-08-16T20:02:38.865Z</time>
      </trkpt>
      <trkpt lat="46.8809" lon="-0.55812">
        <ele>187.33050852245</ele>
        <time>2021-08-16T20:02:42.512Z</time>
      </trkpt>
      <trkpt lat="46.8809" lon="-0.55812">
        <ele>186.56622591157</ele>
        <time>2021-08-16T20:02:46.159Z</time>
      </trkpt>
      <trkpt lat="46.88196" lon="-0.557">
        <ele>185.64205938269</ele>
        <time>2021-08-16T20:02:49.832Z</time>
      </trkpt>
      <trkpt lat="46.88196" lon="-0.557">
        <ele>184.92635745956</ele>
        <time>2021-08-16T20:02:53.505Z</time>
      </trkpt>
      <trkpt lat="46.88273" lon="-0.55564">
        <ele>184.04539418473</ele>
        <time>2021-08-16T20:02:57.202Z</time>
      </trkpt>
      <trkpt lat="46.88273" lon="-0.55564">
        <ele>183.46632197738</ele>
        <time>2021-08-16T20:03:00.899Z</time>
      </trkpt>
      <trkpt lat="46.88274" lon="-0.55562">
        <ele>182.97870084369</ele>
        <time>2021-08-16T20:03:04.597Z</time>
      </trkpt>
      <trkpt lat="46.88275" lon="-0.55559">
        <ele>182.58465776037</ele>
        <time>2021-08-16T20:03:08.295Z</time>
      </trkpt>
      <trkpt lat="46.88277" lon="-0.55556">
        <ele>182.28134316145</ele>
        <time>2021-08-16T20:03:11.994Z</time>
      </trkpt>
      <trkpt lat="46.88277" lon="-0.55556">
        <ele>182.05590996413</ele>
        <time>2021-08-16T20:03:15.693Z</time>
      </trkpt>
      <trkpt lat="46.88277" lon="-0.55556">
        <ele>181.88957912626</ele>
        <time>2021-08-16T20:03:19.392Z</time>
      </trkpt>
      <trkpt lat="46.88306" lon="-0.55536">
        <ele>181.74766596921</ele>
        <time>2021-08-16T20:03:23.097Z</time>
      </trkpt>
      <trkpt lat="46.88336" lon="-0.55496">
        <ele>181.57441961622</ele>
        <time>2021-08-16T20:03:26.810Z</time>
      </trkpt>
      <trkpt lat="46.88389" lon="-0.55459">
        <ele>181.46909582928</ele>
        <time>2021-08-16T20:03:30.535Z</time>
      </trkpt>
      <trkpt lat="46.88414" lon="-0.55448">
        <ele>181.22678522608</ele>
        <time>2021-08-16T20:03:34.265Z</time>
      </trkpt>
      <trkpt lat="46.88501" lon="-0.55369">
        <ele>180.97598889936</ele>
        <time>2021-08-16T20:03:38.016Z</time>
      </trkpt>
      <trkpt lat="46.88551" lon="-0.5532">
        <ele>180.7329418222</ele>
        <time>2021-08-16T20:03:41.779Z</time>
      </trkpt>
      <trkpt lat="46.88569" lon="-0.55297">
        <ele>180.20326186073</ele>
        <time>2021-08-16T20:03:45.547Z</time>
      </trkpt>
      <trkpt lat="46.8864" lon="-0.55273">
        <ele>179.31412305039</ele>
        <time>2021-08-16T20:03:49.329Z</time>
      </trkpt>
      <trkpt lat="46.8869" lon="-0.55254">
        <ele>178.38587655899</ele>
        <time>2021-08-16T20:03:53.122Z</time>
      </trkpt>
      <trkpt lat="46.88728" lon="-0.55246">
        <ele>177.25456392361</ele>
        <time>2021-08-16T20:03:56.922Z</time>
      </trkpt>
      <trkpt lat="46.88763" lon="-0.55246">
        <ele>175.83108197153</ele>
        <time>2021-08-16T20:04:00.729Z</time>
      </trkpt>
      <trkpt lat="46.88799" lon="-0.55255">
        <ele>174.17714543727</ele>
        <time>2021-08-16T20:04:04.543Z</time>
      </trkpt>
      <trkpt lat="46.88889" lon="-0.5524">
        <ele>172.36424668009</ele>
        <time>2021-08-16T20:04:08.376Z</time>
      </trkpt>
      <trkpt lat="46.88982" lon="-0.55252">
        <ele>170.51253138414</ele>
        <time>2021-08-16T20:04:12.227Z</time>
      </trkpt>
      <trkpt lat="46.89066" lon="-0.55277">
        <ele>168.55620476207</ele>
        <time>2021-08-16T20:04:16.095Z</time>
      </trkpt>
      <trkpt lat="46.89128" lon="-0.55292">
        <ele>166.65186982463</ele>
        <time>2021-08-16T20:04:19.976Z</time>
      </trkpt>
      <trkpt lat="46.89137" lon="-0.55296">
        <ele>164.77732418788</ele>
        <time>2021-08-16T20:04:23.859Z</time>
      </trkpt>
      <trkpt lat="46.89165" lon="-0.55336">
        <ele>162.82219091627</ele>
        <time>2021-08-16T20:04:27.750Z</time>
      </trkpt>
      <trkpt lat="46.8923" lon="-0.55403">
        <ele>160.83142584423</ele>
        <time>2021-08-16T20:04:31.657Z</time>
      </trkpt>
      <trkpt lat="46.89264" lon="-0.55429">
        <ele>158.85149306103</ele>
        <time>2021-08-16T20:04:35.571Z</time>
      </trkpt>
      <trkpt lat="46.89264" lon="-0.55429">
        <ele>157.04685747012</ele>
        <time>2021-08-16T20:04:39.485Z</time>
      </trkpt>
      <trkpt lat="46.89266" lon="-0.5543">
        <ele>155.27402938745</ele>
        <time>2021-08-16T20:04:43.400Z</time>
      </trkpt>
      <trkpt lat="46.89268" lon="-0.55432">
        <ele>153.53061106781</ele>
        <time>2021-08-16T20:04:47.315Z</time>
      </trkpt>
      <trkpt lat="46.8927" lon="-0.55433">
        <ele>151.82457516543</ele>
        <time>2021-08-16T20:04:51.231Z</time>
      </trkpt>
      <trkpt lat="46.8927" lon="-0.55433">
        <ele>150.1717341122</ele>
        <time>2021-08-16T20:04:55.147Z</time>
      </trkpt>
      <trkpt lat="46.89296" lon="-0.55453">
        <ele>148.41590746059</ele>
        <time>2021-08-16T20:04:59.069Z</time>
      </trkpt>
      <trkpt lat="46.89329" lon="-0.55484">
        <ele>146.67685812311</ele>
        <time>2021-08-16T20:05:02.998Z</time>
      </trkpt>
      <trkpt lat="46.89367" lon="-0.55532">
        <ele>145.03704691551</ele>
        <time>2021-08-16T20:05:06.937Z</time>
      </trkpt>
      <trkpt lat="46.8938" lon="-0.55559">
        <ele>143.55524572921</ele>
        <time>2021-08-16T20:05:10.881Z</time>
      </trkpt>
      <trkpt lat="46.89409" lon="-0.55641">
        <ele>142.19797072462</ele>
        <time>2021-08-16T20:05:14.838Z</time>
      </trkpt>
      <trkpt lat="46.89454" lon="-0.5572">
        <ele>141.0665821054</ele>
        <time>2021-08-16T20:05:18.809Z</time>
      </trkpt>
      <trkpt lat="46.89467" lon="-0.55753">
        <ele>140.10245319032</ele>
        <time>2021-08-16T20:05:22.785Z</time>
      </trkpt>
      <trkpt lat="46.895" lon="-0.55836">
        <ele>139.16236253879</ele>
        <time>2021-08-16T20:05:26.774Z</time>
      </trkpt>
      <trkpt lat="46.895" lon="-0.55836">
        <ele>138.44452349116</ele>
        <time>2021-08-16T20:05:30.763Z</time>
      </trkpt>
      <trkpt lat="46.89501" lon="-0.55838">
        <ele>137.85609371581</ele>
        <time>2021-08-16T20:05:34.752Z</time>
      </trkpt>
      <trkpt lat="46.89502" lon="-0.55842">
        <ele>137.3885685035</ele>
        <time>2021-08-16T20:05:38.742Z</time>
      </trkpt>
      <trkpt lat="46.89503" lon="-0.55845">
        <ele>137.03162534979</ele>
        <time>2021-08-16T20:05:42.732Z</time>
      </trkpt>
      <trkpt lat="46.89503" lon="-0.55845">
        <ele>136.787111361</ele>
        <time>2021-08-16T20:05:46.722Z</time>
      </trkpt>
      <trkpt lat="46.89498" lon="-0.55941">
        <ele>136.50839571584</ele>
        <time>2021-08-16T20:05:50.726Z</time>
      </trkpt>
      <trkpt lat="46.89497" lon="-0.55999">
        <ele>136.55519046104</ele>
        <time>2021-08-16T20:05:54.738Z</time>
      </trkpt>
      <trkpt lat="46.89498" lon="-0.56012">
        <ele>136.59667629542</ele>
        <time>2021-08-16T20:05:58.751Z</time>
      </trkpt>
      <trkpt lat="46.89498" lon="-0.56012">
        <ele>136.69218938503</ele>
        <time>2021-08-16T20:06:02.764Z</time>
      </trkpt>
      <trkpt lat="46.89498" lon="-0.56014">
        <ele>136.85416972841</ele>
        <time>2021-08-16T20:06:06.778Z</time>
      </trkpt>
      <trkpt lat="46.89499" lon="-0.56018">
        <ele>137.07835661014</ele>
        <time>2021-08-16T20:06:10.792Z</time>
      </trkpt>
      <trkpt lat="46.89499" lon="-0.56022">
        <ele>137.35956341287</ele>
        <time>2021-08-16T20:06:14.807Z</time>
      </trkpt>
      <trkpt lat="46.89499" lon="-0.56022">
        <ele>137.69325217574</ele>
        <time>2021-08-16T20:06:18.822Z</time>
      </trkpt>
      <trkpt lat="46.89499" lon="-0.56022">
        <ele>137.35956341287</ele>
        <time>2021-08-16T20:06:22.837Z</time>
      </trkpt>
      <trkpt lat="46.89505" lon="-0.56038">
        <ele>138.52333787889</ele>
        <time>2021-08-16T20:06:26.854Z</time>
      </trkpt>
      <trkpt lat="46.89533" lon="-0.56093">
        <ele>139.01308781182</ele>
        <time>2021-08-16T20:06:30.881Z</time>
      </trkpt>
      <trkpt lat="46.89544" lon="-0.56116">
        <ele>139.64516123846</ele>
        <time>2021-08-16T20:06:34.912Z</time>
      </trkpt>
      <trkpt lat="46.8955" lon="-0.56136">
        <ele>140.38016155573</ele>
        <time>2021-08-16T20:06:38.946Z</time>
      </trkpt>
      <trkpt lat="46.89555" lon="-0.56182">
        <ele>141.21302529098</ele>
        <time>2021-08-16T20:06:42.986Z</time>
      </trkpt>
      <trkpt lat="46.89549" lon="-0.56247">
        <ele>142.07825963806</ele>
        <time>2021-08-16T20:06:47.035Z</time>
      </trkpt>
      <trkpt lat="46.89549" lon="-0.56248">
        <ele>142.90294517954</ele>
        <time>2021-08-16T20:06:51.084Z</time>
      </trkpt>
      <trkpt lat="46.89548" lon="-0.5625">
        <ele>143.76649307966</ele>
        <time>2021-08-16T20:06:55.133Z</time>
      </trkpt>
      <trkpt lat="46.89548" lon="-0.56254">
        <ele>144.66663104265</ele>
        <time>2021-08-16T20:06:59.183Z</time>
      </trkpt>
      <trkpt lat="46.89548" lon="-0.56257">
        <ele>145.60096844536</ele>
        <time>2021-08-16T20:07:03.233Z</time>
      </trkpt>
      <trkpt lat="46.89548" lon="-0.56257">
        <ele>146.5657301673</ele>
        <time>2021-08-16T20:07:07.283Z</time>
      </trkpt>
      <trkpt lat="46.89547" lon="-0.5626">
        <ele>147.55595048528</ele>
        <time>2021-08-16T20:07:11.334Z</time>
      </trkpt>
      <trkpt lat="46.89538" lon="-0.56298">
        <ele>148.61148718132</ele>
        <time>2021-08-16T20:07:15.390Z</time>
      </trkpt>
      <trkpt lat="46.8953" lon="-0.56321">
        <ele>149.67785934196</ele>
        <time>2021-08-16T20:07:19.450Z</time>
      </trkpt>
      <trkpt lat="46.8952" lon="-0.56344">
        <ele>150.72858534659</ele>
        <time>2021-08-16T20:07:23.514Z</time>
      </trkpt>
      <trkpt lat="46.89491" lon="-0.56397">
        <ele>151.7926323476</ele>
        <time>2021-08-16T20:07:27.587Z</time>
      </trkpt>
      <trkpt lat="46.89461" lon="-0.56443">
        <ele>152.80593497749</ele>
        <time>2021-08-16T20:07:31.669Z</time>
      </trkpt>
      <trkpt lat="46.89461" lon="-0.56443">
        <ele>153.51660351246</ele>
        <time>2021-08-16T20:07:35.751Z</time>
      </trkpt>
      <trkpt lat="46.8946" lon="-0.56445">
        <ele>154.0903345892</ele>
        <time>2021-08-16T20:07:39.833Z</time>
      </trkpt>
      <trkpt lat="46.89458" lon="-0.56448">
        <ele>154.51409202982</ele>
        <time>2021-08-16T20:07:43.915Z</time>
      </trkpt>
      <trkpt lat="46.89456" lon="-0.56451">
        <ele>154.78070405259</ele>
        <time>2021-08-16T20:07:47.998Z</time>
      </trkpt>
      <trkpt lat="46.89453" lon="-0.56455">
        <ele>154.89867599328</ele>
        <time>2021-08-16T20:07:52.082Z</time>
      </trkpt>
      <trkpt lat="46.89463" lon="-0.56458">
        <ele>154.84620412015</ele>
        <time>2021-08-16T20:07:56.168Z</time>
      </trkpt>
      <trkpt lat="46.89487" lon="-0.56459">
        <ele>154.66930758753</ele>
        <time>2021-08-16T20:08:00.259Z</time>
      </trkpt>
      <trkpt lat="46.89565" lon="-0.56452">
        <ele>154.28366678876</ele>
        <time>2021-08-16T20:08:04.365Z</time>
      </trkpt>
      <trkpt lat="46.89573" lon="-0.56453">
        <ele>154.00630836085</ele>
        <time>2021-08-16T20:08:08.473Z</time>
      </trkpt>
      <trkpt lat="46.89584" lon="-0.56458">
        <ele>153.71675869055</ele>
        <time>2021-08-16T20:08:12.583Z</time>
      </trkpt>
      <trkpt lat="46.89597" lon="-0.56469">
        <ele>153.43695807375</ele>
        <time>2021-08-16T20:08:16.696Z</time>
      </trkpt>
      <trkpt lat="46.89597" lon="-0.5647">
        <ele>153.15699047732</ele>
        <time>2021-08-16T20:08:20.809Z</time>
      </trkpt>
      <trkpt lat="46.89599" lon="-0.56471">
        <ele>152.9121577526</ele>
        <time>2021-08-16T20:08:24.923Z</time>
      </trkpt>
      <trkpt lat="46.89601" lon="-0.56473">
        <ele>152.71417450651</ele>
        <time>2021-08-16T20:08:29.037Z</time>
      </trkpt>
      <trkpt lat="46.89603" lon="-0.56474">
        <ele>152.56927337963</ele>
        <time>2021-08-16T20:08:33.152Z</time>
      </trkpt>
      <trkpt lat="46.89603" lon="-0.56474">
        <ele>152.4791943114</ele>
        <time>2021-08-16T20:08:37.267Z</time>
      </trkpt>
      <trkpt lat="46.89604" lon="-0.56484">
        <ele>152.46549059101</ele>
        <time>2021-08-16T20:08:41.383Z</time>
      </trkpt>
      <trkpt lat="46.89606" lon="-0.56492">
        <ele>152.50604215505</ele>
        <time>2021-08-16T20:08:45.500Z</time>
      </trkpt>
      <trkpt lat="46.89614" lon="-0.565">
        <ele>152.60215793405</ele>
        <time>2021-08-16T20:08:49.619Z</time>
      </trkpt>
      <trkpt lat="46.89616" lon="-0.56506">
        <ele>152.74098338697</ele>
        <time>2021-08-16T20:08:53.739Z</time>
      </trkpt>
      <trkpt lat="46.89616" lon="-0.56506">
        <ele>152.91087794454</ele>
        <time>2021-08-16T20:08:57.859Z</time>
      </trkpt>
      <trkpt lat="46.89616" lon="-0.56507">
        <ele>153.1135548905</ele>
        <time>2021-08-16T20:09:01.979Z</time>
      </trkpt>
      <trkpt lat="46.89616" lon="-0.56508">
        <ele>153.34278387448</ele>
        <time>2021-08-16T20:09:06.099Z</time>
      </trkpt>
      <trkpt lat="46.89617" lon="-0.56512">
        <ele>153.59095808616</ele>
        <time>2021-08-16T20:09:10.220Z</time>
      </trkpt>
      <trkpt lat="46.89618" lon="-0.56516">
        <ele>153.84370854661</ele>
        <time>2021-08-16T20:09:14.341Z</time>
      </trkpt>
      <trkpt lat="46.89618" lon="-0.56516">
        <ele>154.08459227817</ele>
        <time>2021-08-16T20:09:18.462Z</time>
      </trkpt>
      <trkpt lat="46.89641" lon="-0.56627">
        <ele>154.39619470384</ele>
        <time>2021-08-16T20:09:22.599Z</time>
      </trkpt>
      <trkpt lat="46.89643" lon="-0.56634">
        <ele>154.58590361438</ele>
        <time>2021-08-16T20:09:26.737Z</time>
      </trkpt>
      <trkpt lat="46.89648" lon="-0.56638">
        <ele>154.72918461408</ele>
        <time>2021-08-16T20:09:30.877Z</time>
      </trkpt>
      <trkpt lat="46.89649" lon="-0.56638">
        <ele>154.83409723736</ele>
        <time>2021-08-16T20:09:35.017Z</time>
      </trkpt>
      <trkpt lat="46.8965" lon="-0.56638">
        <ele>154.88556475902</ele>
        <time>2021-08-16T20:09:39.157Z</time>
      </trkpt>
      <trkpt lat="46.89652" lon="-0.5664">
        <ele>154.88151575436</ele>
        <time>2021-08-16T20:09:43.297Z</time>
      </trkpt>
      <trkpt lat="46.89654" lon="-0.56641">
        <ele>154.82653679009</ele>
        <time>2021-08-16T20:09:47.438Z</time>
      </trkpt>
      <trkpt lat="46.89655" lon="-0.56642">
        <ele>154.71893517736</ele>
        <time>2021-08-16T20:09:51.579Z</time>
      </trkpt>
      <trkpt lat="46.89655" lon="-0.56642">
        <ele>154.56819689718</ele>
        <time>2021-08-16T20:09:55.720Z</time>
      </trkpt>
      <trkpt lat="46.89655" lon="-0.56642">
        <ele>154.71893517736</ele>
        <time>2021-08-16T20:09:59.861Z</time>
      </trkpt>
      <trkpt lat="46.89783" lon="-0.56712">
        <ele>154.04890570649</ele>
        <time>2021-08-16T20:10:04.029Z</time>
      </trkpt>
      <trkpt lat="46.89789" lon="-0.56717">
        <ele>153.78497771722</ele>
        <time>2021-08-16T20:10:08.199Z</time>
      </trkpt>
      <trkpt lat="46.89789" lon="-0.56717">
        <ele>153.52866361303</ele>
        <time>2021-08-16T20:10:12.369Z</time>
      </trkpt>
      <trkpt lat="46.8979" lon="-0.56719">
        <ele>153.26920643359</ele>
        <time>2021-08-16T20:10:16.539Z</time>
      </trkpt>
      <trkpt lat="46.89792" lon="-0.56721">
        <ele>153.01090437906</ele>
        <time>2021-08-16T20:10:20.710Z</time>
      </trkpt>
      <trkpt lat="46.89794" lon="-0.56723">
        <ele>152.75621289485</ele>
        <time>2021-08-16T20:10:24.881Z</time>
      </trkpt>
      <trkpt lat="46.89794" lon="-0.56723">
        <ele>152.50646078884</ele>
        <time>2021-08-16T20:10:29.052Z</time>
      </trkpt>
      <trkpt lat="46.89835" lon="-0.56768">
        <ele>152.23438812376</ele>
        <time>2021-08-16T20:10:33.233Z</time>
      </trkpt>
      <trkpt lat="46.89914" lon="-0.56893">
        <ele>152.03273680153</ele>
        <time>2021-08-16T20:10:37.438Z</time>
      </trkpt>
      <trkpt lat="46.89939" lon="-0.56927">
        <ele>151.68752135683</ele>
        <time>2021-08-16T20:10:41.650Z</time>
      </trkpt>
      <trkpt lat="46.89939" lon="-0.56927">
        <ele>151.45008091334</ele>
        <time>2021-08-16T20:10:45.862Z</time>
      </trkpt>
      <trkpt lat="46.89941" lon="-0.56929">
        <ele>151.20969370741</ele>
        <time>2021-08-16T20:10:50.074Z</time>
      </trkpt>
      <trkpt lat="46.89943" lon="-0.56932">
        <ele>150.96116653139</ele>
        <time>2021-08-16T20:10:54.286Z</time>
      </trkpt>
      <trkpt lat="46.89944" lon="-0.56934">
        <ele>150.70966449923</ele>
        <time>2021-08-16T20:10:58.499Z</time>
      </trkpt>
      <trkpt lat="46.89944" lon="-0.56934">
        <ele>150.43890038555</ele>
        <time>2021-08-16T20:11:02.712Z</time>
      </trkpt>
      <trkpt lat="46.89949" lon="-0.5694">
        <ele>150.14005688982</ele>
        <time>2021-08-16T20:11:06.926Z</time>
      </trkpt>
      <trkpt lat="46.89994" lon="-0.57051">
        <ele>149.69061331785</ele>
        <time>2021-08-16T20:11:11.158Z</time>
      </trkpt>
      <trkpt lat="46.9" lon="-0.57062">
        <ele>149.30481349477</ele>
        <time>2021-08-16T20:11:15.392Z</time>
      </trkpt>
      <trkpt lat="46.90008" lon="-0.57068">
        <ele>148.87008003403</ele>
        <time>2021-08-16T20:11:19.628Z</time>
      </trkpt>
      <trkpt lat="46.90008" lon="-0.57068">
        <ele>148.38626328066</ele>
        <time>2021-08-16T20:11:23.864Z</time>
      </trkpt>
      <trkpt lat="46.90009" lon="-0.57069">
        <ele>147.83025502763</ele>
        <time>2021-08-16T20:11:28.100Z</time>
      </trkpt>
      <trkpt lat="46.90012" lon="-0.57071">
        <ele>147.19015345034</ele>
        <time>2021-08-16T20:11:32.336Z</time>
      </trkpt>
      <trkpt lat="46.90014" lon="-0.57073">
        <ele>146.45884862912</ele>
        <time>2021-08-16T20:11:36.573Z</time>
      </trkpt>
      <trkpt lat="46.90014" lon="-0.57073">
        <ele>145.64331153576</ele>
        <time>2021-08-16T20:11:40.810Z</time>
      </trkpt>
      <trkpt lat="46.90025" lon="-0.57085">
        <ele>144.67216355753</ele>
        <time>2021-08-16T20:11:45.050Z</time>
      </trkpt>
      <trkpt lat="46.90032" lon="-0.57099">
        <ele>143.62000214443</ele>
        <time>2021-08-16T20:11:49.292Z</time>
      </trkpt>
      <trkpt lat="46.9004" lon="-0.57118">
        <ele>142.50300975997</ele>
        <time>2021-08-16T20:11:53.537Z</time>
      </trkpt>
      <trkpt lat="46.90051" lon="-0.57175">
        <ele>141.28372547176</ele>
        <time>2021-08-16T20:11:57.790Z</time>
      </trkpt>
      <trkpt lat="46.90072" lon="-0.57251">
        <ele>139.97018802871</ele>
        <time>2021-08-16T20:12:02.055Z</time>
      </trkpt>
      <trkpt lat="46.90081" lon="-0.5729">
        <ele>138.67869310134</ele>
        <time>2021-08-16T20:12:06.325Z</time>
      </trkpt>
      <trkpt lat="46.90084" lon="-0.57316">
        <ele>137.42958250045</ele>
        <time>2021-08-16T20:12:10.599Z</time>
      </trkpt>
      <trkpt lat="46.90084" lon="-0.57334">
        <ele>136.26290136097</ele>
        <time>2021-08-16T20:12:14.875Z</time>
      </trkpt>
      <trkpt lat="46.90083" lon="-0.57351">
        <ele>135.15377889685</ele>
        <time>2021-08-16T20:12:19.154Z</time>
      </trkpt>
      <trkpt lat="46.90071" lon="-0.57422">
        <ele>134.07177979296</ele>
        <time>2021-08-16T20:12:23.443Z</time>
      </trkpt>
      <trkpt lat="46.90065" lon="-0.57446">
        <ele>133.13216939729</ele>
        <time>2021-08-16T20:12:27.735Z</time>
      </trkpt>
      <trkpt lat="46.90061" lon="-0.57473">
        <ele>132.29424071869</ele>
        <time>2021-08-16T20:12:32.031Z</time>
      </trkpt>
      <trkpt lat="46.90061" lon="-0.57485">
        <ele>131.62484273791</ele>
        <time>2021-08-16T20:12:36.329Z</time>
      </trkpt>
      <trkpt lat="46.90061" lon="-0.57486">
        <ele>131.15461850098</ele>
        <time>2021-08-16T20:12:40.627Z</time>
      </trkpt>
      <trkpt lat="46.90061" lon="-0.57488">
        <ele>130.8637950465</ele>
        <time>2021-08-16T20:12:44.925Z</time>
      </trkpt>
      <trkpt lat="46.90061" lon="-0.57492">
        <ele>130.76545991306</ele>
        <time>2021-08-16T20:12:49.223Z</time>
      </trkpt>
      <trkpt lat="46.90061" lon="-0.57496">
        <ele>130.87770472632</ele>
        <time>2021-08-16T20:12:53.522Z</time>
      </trkpt>
      <trkpt lat="46.90109" lon="-0.57503">
        <ele>131.16055074312</ele>
        <time>2021-08-16T20:12:57.831Z</time>
      </trkpt>
      <trkpt lat="46.90133" lon="-0.57519">
        <ele>131.72421054614</ele>
        <time>2021-08-16T20:13:02.145Z</time>
      </trkpt>
      <trkpt lat="46.90136" lon="-0.57524">
        <ele>132.52248528886</ele>
        <time>2021-08-16T20:13:06.460Z</time>
      </trkpt>
      <trkpt lat="46.90138" lon="-0.57529">
        <ele>133.51803632064</ele>
        <time>2021-08-16T20:13:10.776Z</time>
      </trkpt>
      <trkpt lat="46.90139" lon="-0.57551">
        <ele>134.71772359825</ele>
        <time>2021-08-16T20:13:15.094Z</time>
      </trkpt>
      <trkpt lat="46.90149" lon="-0.5758">
        <ele>136.16461643634</ele>
        <time>2021-08-16T20:13:19.417Z</time>
      </trkpt>
      <trkpt lat="46.90193" lon="-0.57661">
        <ele>137.81762564235</ele>
        <time>2021-08-16T20:13:23.754Z</time>
      </trkpt>
      <trkpt lat="46.90231" lon="-0.57687">
        <ele>139.443700018</ele>
        <time>2021-08-16T20:13:28.100Z</time>
      </trkpt>
      <trkpt lat="46.90246" lon="-0.57702">
        <ele>140.9898332521</ele>
        <time>2021-08-16T20:13:32.449Z</time>
      </trkpt>
      <trkpt lat="46.90247" lon="-0.57703">
        <ele>142.40603693054</ele>
        <time>2021-08-16T20:13:36.798Z</time>
      </trkpt>
      <trkpt lat="46.90248" lon="-0.57704">
        <ele>143.75513353605</ele>
        <time>2021-08-16T20:13:41.148Z</time>
      </trkpt>
      <trkpt lat="46.9025" lon="-0.57706">
        <ele>145.01793883366</ele>
        <time>2021-08-16T20:13:45.498Z</time>
      </trkpt>
      <trkpt lat="46.90252" lon="-0.57708">
        <ele>146.1643007751</ele>
        <time>2021-08-16T20:13:49.849Z</time>
      </trkpt>
      <trkpt lat="46.90252" lon="-0.57708">
        <ele>147.19369630828</ele>
        <time>2021-08-16T20:13:54.200Z</time>
      </trkpt>
      <trkpt lat="46.90252" lon="-0.57708">
        <ele>146.1643007751</ele>
        <time>2021-08-16T20:13:58.551Z</time>
      </trkpt>
      <trkpt lat="46.90256" lon="-0.57705">
        <ele>148.93877036464</ele>
        <time>2021-08-16T20:14:02.903Z</time>
      </trkpt>
      <trkpt lat="46.90276" lon="-0.57699">
        <ele>149.75464122431</ele>
        <time>2021-08-16T20:14:07.259Z</time>
      </trkpt>
      <trkpt lat="46.9028" lon="-0.57695">
        <ele>150.37839967681</ele>
        <time>2021-08-16T20:14:11.616Z</time>
      </trkpt>
      <trkpt lat="46.9028" lon="-0.57694">
        <ele>150.86456431577</ele>
        <time>2021-08-16T20:14:15.973Z</time>
      </trkpt>
      <trkpt lat="46.9028" lon="-0.57694">
        <ele>151.25316274253</ele>
        <time>2021-08-16T20:14:20.330Z</time>
      </trkpt>
      <trkpt lat="46.90282" lon="-0.57695">
        <ele>151.56052167751</ele>
        <time>2021-08-16T20:14:24.687Z</time>
      </trkpt>
      <trkpt lat="46.90284" lon="-0.57695">
        <ele>151.79990593621</ele>
        <time>2021-08-16T20:14:29.045Z</time>
      </trkpt>
      <trkpt lat="46.90287" lon="-0.57696">
        <ele>151.9771189757</ele>
        <time>2021-08-16T20:14:33.403Z</time>
      </trkpt>
      <trkpt lat="46.90287" lon="-0.57696">
        <ele>152.09379800873</ele>
        <time>2021-08-16T20:14:37.761Z</time>
      </trkpt>
      <trkpt lat="46.903" lon="-0.577">
        <ele>152.18980223833</ele>
        <time>2021-08-16T20:14:42.122Z</time>
      </trkpt>
      <trkpt lat="46.90307" lon="-0.57706">
        <ele>152.23232874114</ele>
        <time>2021-08-16T20:14:46.484Z</time>
      </trkpt>
      <trkpt lat="46.90312" lon="-0.57711">
        <ele>152.25781415936</ele>
        <time>2021-08-16T20:14:50.848Z</time>
      </trkpt>
      <trkpt lat="46.90331" lon="-0.57716">
        <ele>152.28611587105</ele>
        <time>2021-08-16T20:14:55.215Z</time>
      </trkpt>
      <trkpt lat="46.90343" lon="-0.57724">
        <ele>152.31786290617</ele>
        <time>2021-08-16T20:14:59.585Z</time>
      </trkpt>
      <trkpt lat="46.90346" lon="-0.57724">
        <ele>152.34767765281</ele>
        <time>2021-08-16T20:15:03.956Z</time>
      </trkpt>
      <trkpt lat="46.90346" lon="-0.57724">
        <ele>152.37546704971</ele>
        <time>2021-08-16T20:15:08.327Z</time>
      </trkpt>
      <trkpt lat="46.90348" lon="-0.57724">
        <ele>152.40569569572</ele>
        <time>2021-08-16T20:15:12.698Z</time>
      </trkpt>
      <trkpt lat="46.90349" lon="-0.57724">
        <ele>152.43163294522</ele>
        <time>2021-08-16T20:15:17.069Z</time>
      </trkpt>
      <trkpt lat="46.90349" lon="-0.57727">
        <ele>152.44663414458</ele>
        <time>2021-08-16T20:15:21.441Z</time>
      </trkpt>
      <trkpt lat="46.9035" lon="-0.5773">
        <ele>152.44414080147</ele>
        <time>2021-08-16T20:15:25.813Z</time>
      </trkpt>
      <trkpt lat="46.9035" lon="-0.5773">
        <ele>152.41244002449</ele>
        <time>2021-08-16T20:15:30.185Z</time>
      </trkpt>
      <trkpt lat="46.90356" lon="-0.57759">
        <ele>152.35260303777</ele>
        <time>2021-08-16T20:15:34.561Z</time>
      </trkpt>
      <trkpt lat="46.90386" lon="-0.57775">
        <ele>152.29797773541</ele>
        <time>2021-08-16T20:15:38.944Z</time>
      </trkpt>
      <trkpt lat="46.90386" lon="-0.57775">
        <ele>152.11209881876</ele>
        <time>2021-08-16T20:15:43.327Z</time>
      </trkpt>
      <trkpt lat="46.90388" lon="-0.57776">
        <ele>151.85296588427</ele>
        <time>2021-08-16T20:15:47.710Z</time>
      </trkpt>
      <trkpt lat="46.9039" lon="-0.57777">
        <ele>151.51552356054</ele>
        <time>2021-08-16T20:15:52.094Z</time>
      </trkpt>
      <trkpt lat="46.90393" lon="-0.57779">
        <ele>151.09806486436</ele>
        <time>2021-08-16T20:15:56.478Z</time>
      </trkpt>
      <trkpt lat="46.90393" lon="-0.57779">
        <ele>150.60322011602</ele>
        <time>2021-08-16T20:16:00.862Z</time>
      </trkpt>
      <trkpt lat="46.90423" lon="-0.57795">
        <ele>150.00722527431</ele>
        <time>2021-08-16T20:16:05.252Z</time>
      </trkpt>
      <trkpt lat="46.90547" lon="-0.57849">
        <ele>149.18810894893</ele>
        <time>2021-08-16T20:16:09.668Z</time>
      </trkpt>
      <trkpt lat="46.90563" lon="-0.57863">
        <ele>148.54043919018</ele>
        <time>2021-08-16T20:16:14.088Z</time>
      </trkpt>
      <trkpt lat="46.90581" lon="-0.57886">
        <ele>147.94110574411</ele>
        <time>2021-08-16T20:16:18.513Z</time>
      </trkpt>
      <trkpt lat="46.90581" lon="-0.57887">
        <ele>147.36326899536</ele>
        <time>2021-08-16T20:16:22.938Z</time>
      </trkpt>
      <trkpt lat="46.90582" lon="-0.57888">
        <ele>146.83543045915</ele>
        <time>2021-08-16T20:16:27.363Z</time>
      </trkpt>
      <trkpt lat="46.90584" lon="-0.57891">
        <ele>146.37401321492</ele>
        <time>2021-08-16T20:16:31.789Z</time>
      </trkpt>
      <trkpt lat="46.90586" lon="-0.57894">
        <ele>145.99328449667</ele>
        <time>2021-08-16T20:16:36.215Z</time>
      </trkpt>
      <trkpt lat="46.90586" lon="-0.57894">
        <ele>145.70590585544</ele>
        <time>2021-08-16T20:16:40.641Z</time>
      </trkpt>
      <trkpt lat="46.9059" lon="-0.57899">
        <ele>145.52851703874</ele>
        <time>2021-08-16T20:16:45.069Z</time>
      </trkpt>
      <trkpt lat="46.9059" lon="-0.57899">
        <ele>145.4680159185</ele>
        <time>2021-08-16T20:16:49.497Z</time>
      </trkpt>
      <trkpt lat="46.90597" lon="-0.57906">
        <ele>145.5382342205</ele>
        <time>2021-08-16T20:16:53.926Z</time>
      </trkpt>
      <trkpt lat="46.90601" lon="-0.57908">
        <ele>145.74552295644</ele>
        <time>2021-08-16T20:16:58.356Z</time>
      </trkpt>
      <trkpt lat="46.90615" lon="-0.57909">
        <ele>146.08365368594</ele>
        <time>2021-08-16T20:17:02.789Z</time>
      </trkpt>
      <trkpt lat="46.90622" lon="-0.57908">
        <ele>146.5853444279</ele>
        <time>2021-08-16T20:17:07.223Z</time>
      </trkpt>
      <trkpt lat="46.90648" lon="-0.57894">
        <ele>147.23786662491</ele>
        <time>2021-08-16T20:17:11.663Z</time>
      </trkpt>
      <trkpt lat="46.90659" lon="-0.57892">
        <ele>148.08024549138</ele>
        <time>2021-08-16T20:17:16.105Z</time>
      </trkpt>
      <trkpt lat="46.90668" lon="-0.57894">
        <ele>149.07881914568</ele>
        <time>2021-08-16T20:17:20.549Z</time>
      </trkpt>
      <trkpt lat="46.90719" lon="-0.57938">
        <ele>150.46657104943</ele>
        <time>2021-08-16T20:17:25.005Z</time>
      </trkpt>
      <trkpt lat="46.9073" lon="-0.57944">
        <ele>151.73420432584</ele>
        <time>2021-08-16T20:17:29.463Z</time>
      </trkpt>
      <trkpt lat="46.90744" lon="-0.5796">
        <ele>153.04686908729</ele>
        <time>2021-08-16T20:17:33.925Z</time>
      </trkpt>
      <trkpt lat="46.90758" lon="-0.57972">
        <ele>154.35852863387</ele>
        <time>2021-08-16T20:17:38.390Z</time>
      </trkpt>
      <trkpt lat="46.90783" lon="-0.57993">
        <ele>155.70986902355</ele>
        <time>2021-08-16T20:17:42.861Z</time>
      </trkpt>
      <trkpt lat="46.90796" lon="-0.58">
        <ele>156.99063579199</ele>
        <time>2021-08-16T20:17:47.334Z</time>
      </trkpt>
      <trkpt lat="46.90816" lon="-0.58007">
        <ele>158.25212536784</ele>
        <time>2021-08-16T20:17:51.811Z</time>
      </trkpt>
      <trkpt lat="46.9082" lon="-0.58007">
        <ele>159.41215237555</ele>
        <time>2021-08-16T20:17:56.289Z</time>
      </trkpt>
      <trkpt lat="46.9082" lon="-0.58007">
        <ele>160.5023655309</ele>
        <time>2021-08-16T20:18:00.767Z</time>
      </trkpt>
      <trkpt lat="46.90822" lon="-0.58007">
        <ele>161.54159076678</ele>
        <time>2021-08-16T20:18:05.246Z</time>
      </trkpt>
      <trkpt lat="46.90824" lon="-0.58007">
        <ele>162.53464603124</ele>
        <time>2021-08-16T20:18:09.725Z</time>
      </trkpt>
      <trkpt lat="46.90827" lon="-0.58008">
        <ele>163.48266329024</ele>
        <time>2021-08-16T20:18:14.205Z</time>
      </trkpt>
      <trkpt lat="46.90827" lon="-0.58008">
        <ele>164.38204632832</ele>
        <time>2021-08-16T20:18:18.685Z</time>
      </trkpt>
      <trkpt lat="46.90897" lon="-0.58015">
        <ele>165.47022951587</ele>
        <time>2021-08-16T20:18:23.179Z</time>
      </trkpt>
      <trkpt lat="46.9095" lon="-0.58039">
        <ele>166.38830744552</ele>
        <time>2021-08-16T20:18:27.684Z</time>
      </trkpt>
      <trkpt lat="46.90963" lon="-0.58043">
        <ele>167.17737730707</ele>
        <time>2021-08-16T20:18:32.191Z</time>
      </trkpt>
      <trkpt lat="46.90963" lon="-0.58043">
        <ele>167.90200867021</ele>
        <time>2021-08-16T20:18:36.698Z</time>
      </trkpt>
      <trkpt lat="46.90964" lon="-0.58044">
        <ele>168.59229206482</ele>
        <time>2021-08-16T20:18:41.206Z</time>
      </trkpt>
      <trkpt lat="46.90966" lon="-0.58044">
        <ele>169.25701276915</ele>
        <time>2021-08-16T20:18:45.714Z</time>
      </trkpt>
      <trkpt lat="46.90965" lon="-0.58046">
        <ele>169.9066392081</ele>
        <time>2021-08-16T20:18:50.222Z</time>
      </trkpt>
      <trkpt lat="46.90963" lon="-0.58048">
        <ele>170.55713795677</ele>
        <time>2021-08-16T20:18:54.731Z</time>
      </trkpt>
      <trkpt lat="46.90963" lon="-0.58048">
        <ele>171.21610077276</ele>
        <time>2021-08-16T20:18:59.240Z</time>
      </trkpt>
      <trkpt lat="46.90966" lon="-0.58044">
        <ele>169.25701276915</ele>
        <time>2021-08-16T20:19:03.750Z</time>
      </trkpt>
      <trkpt lat="46.90993" lon="-0.58048">
        <ele>172.67299187645</ele>
        <time>2021-08-16T20:19:08.265Z</time>
      </trkpt>
      <trkpt lat="46.91005" lon="-0.58054">
        <ele>173.39542323983</ele>
        <time>2021-08-16T20:19:12.783Z</time>
      </trkpt>
      <trkpt lat="46.91022" lon="-0.58062">
        <ele>174.14536778197</ele>
        <time>2021-08-16T20:19:17.304Z</time>
      </trkpt>
      <trkpt lat="46.9104" lon="-0.58074">
        <ele>174.93588844365</ele>
        <time>2021-08-16T20:19:21.829Z</time>
      </trkpt>
      <trkpt lat="46.91112" lon="-0.5815">
        <ele>175.77870916192</ele>
        <time>2021-08-16T20:19:26.372Z</time>
      </trkpt>
      <trkpt lat="46.91114" lon="-0.58156">
        <ele>176.39199952484</ele>
        <time>2021-08-16T20:19:30.916Z</time>
      </trkpt>
      <trkpt lat="46.91114" lon="-0.58156">
        <ele>176.9376287776</ele>
        <time>2021-08-16T20:19:35.460Z</time>
      </trkpt>
      <trkpt lat="46.91115" lon="-0.58158">
        <ele>177.38900485442</ele>
        <time>2021-08-16T20:19:40.004Z</time>
      </trkpt>
      <trkpt lat="46.91117" lon="-0.58161">
        <ele>177.73295347743</ele>
        <time>2021-08-16T20:19:44.549Z</time>
      </trkpt>
      <trkpt lat="46.91118" lon="-0.58164">
        <ele>177.96139236878</ele>
        <time>2021-08-16T20:19:49.094Z</time>
      </trkpt>
      <trkpt lat="46.91127" lon="-0.58167">
        <ele>178.06500666015</ele>
        <time>2021-08-16T20:19:53.641Z</time>
      </trkpt>
      <trkpt lat="46.91181" lon="-0.58234">
        <ele>178.01286696415</ele>
        <time>2021-08-16T20:19:58.202Z</time>
      </trkpt>
      <trkpt lat="46.91198" lon="-0.58247">
        <ele>177.8760531898</ele>
        <time>2021-08-16T20:20:02.767Z</time>
      </trkpt>
      <trkpt lat="46.91263" lon="-0.58284">
        <ele>177.51451539931</ele>
        <time>2021-08-16T20:20:07.346Z</time>
      </trkpt>
      <trkpt lat="46.91267" lon="-0.58289">
        <ele>177.04162056334</ele>
        <time>2021-08-16T20:20:11.926Z</time>
      </trkpt>
      <trkpt lat="46.91268" lon="-0.58289">
        <ele>176.43168540622</ele>
        <time>2021-08-16T20:20:16.506Z</time>
      </trkpt>
      <trkpt lat="46.91269" lon="-0.5829">
        <ele>175.66434761396</ele>
        <time>2021-08-16T20:20:21.086Z</time>
      </trkpt>
      <trkpt lat="46.91269" lon="-0.58291">
        <ele>174.74532931433</ele>
        <time>2021-08-16T20:20:25.667Z</time>
      </trkpt>
      <trkpt lat="46.91271" lon="-0.5829">
        <ele>173.67050312392</ele>
        <time>2021-08-16T20:20:30.248Z</time>
      </trkpt>
      <trkpt lat="46.91274" lon="-0.5829">
        <ele>172.45122291509</ele>
        <time>2021-08-16T20:20:34.830Z</time>
      </trkpt>
      <trkpt lat="46.91274" lon="-0.5829">
        <ele>171.11379751438</ele>
        <time>2021-08-16T20:20:39.412Z</time>
      </trkpt>
      <trkpt lat="46.91282" lon="-0.58289">
        <ele>169.64321093171</ele>
        <time>2021-08-16T20:20:43.995Z</time>
      </trkpt>
      <trkpt lat="46.914" lon="-0.58247">
        <ele>167.75821218946</ele>
        <time>2021-08-16T20:20:48.602Z</time>
      </trkpt>
      <trkpt lat="46.91438" lon="-0.5823">
        <ele>166.12657082655</ele>
        <time>2021-08-16T20:20:53.217Z</time>
      </trkpt>
      <trkpt lat="46.91493" lon="-0.58194">
        <ele>164.44501020199</ele>
        <time>2021-08-16T20:20:57.844Z</time>
      </trkpt>
      <trkpt lat="46.91526" lon="-0.58159">
        <ele>162.89470562004</ele>
        <time>2021-08-16T20:21:02.480Z</time>
      </trkpt>
      <trkpt lat="46.9153" lon="-0.58157">
        <ele>161.55703952176</ele>
        <time>2021-08-16T20:21:07.116Z</time>
      </trkpt>
      <trkpt lat="46.91531" lon="-0.58157">
        <ele>160.34121298615</ele>
        <time>2021-08-16T20:21:11.753Z</time>
      </trkpt>
      <trkpt lat="46.91532" lon="-0.58157">
        <ele>159.25370375756</ele>
        <time>2021-08-16T20:21:16.390Z</time>
      </trkpt>
      <trkpt lat="46.91535" lon="-0.58156">
        <ele>158.29211501636</ele>
        <time>2021-08-16T20:21:21.027Z</time>
      </trkpt>
      <trkpt lat="46.91537" lon="-0.58155">
        <ele>157.4472293362</ele>
        <time>2021-08-16T20:21:25.665Z</time>
      </trkpt>
      <trkpt lat="46.91537" lon="-0.58155">
        <ele>156.70508145101</ele>
        <time>2021-08-16T20:21:30.303Z</time>
      </trkpt>
      <trkpt lat="46.91543" lon="-0.58152">
        <ele>156.04899156527</ele>
        <time>2021-08-16T20:21:34.942Z</time>
      </trkpt>
      <trkpt lat="46.91581" lon="-0.58147">
        <ele>155.46151095623</ele>
        <time>2021-08-16T20:21:39.589Z</time>
      </trkpt>
      <trkpt lat="46.91649" lon="-0.58144">
        <ele>154.83033643521</ele>
        <time>2021-08-16T20:21:44.249Z</time>
      </trkpt>
      <trkpt lat="46.91699" lon="-0.58137">
        <ele>154.29475909264</ele>
        <time>2021-08-16T20:21:48.919Z</time>
      </trkpt>
      <trkpt lat="46.91733" lon="-0.5814">
        <ele>153.77622913441</ele>
        <time>2021-08-16T20:21:53.596Z</time>
      </trkpt>
      <trkpt lat="46.91753" lon="-0.58125">
        <ele>153.30243322021</ele>
        <time>2021-08-16T20:21:58.278Z</time>
      </trkpt>
      <trkpt lat="46.91761" lon="-0.58126">
        <ele>152.85984643184</ele>
        <time>2021-08-16T20:22:02.961Z</time>
      </trkpt>
      <trkpt lat="46.9177" lon="-0.58132">
        <ele>152.41447484445</ele>
        <time>2021-08-16T20:22:07.646Z</time>
      </trkpt>
      <trkpt lat="46.91839" lon="-0.58179">
        <ele>151.96128823973</ele>
        <time>2021-08-16T20:22:12.347Z</time>
      </trkpt>
      <trkpt lat="46.91854" lon="-0.58196">
        <ele>151.50183207602</ele>
        <time>2021-08-16T20:22:17.051Z</time>
      </trkpt>
      <trkpt lat="46.91923" lon="-0.58258">
        <ele>150.91471720843</ele>
        <time>2021-08-16T20:22:21.771Z</time>
      </trkpt>
      <trkpt lat="46.91975" lon="-0.583">
        <ele>150.36903404315</ele>
        <time>2021-08-16T20:22:26.504Z</time>
      </trkpt>
      <trkpt lat="46.92" lon="-0.58318">
        <ele>149.7918497284</ele>
        <time>2021-08-16T20:22:31.242Z</time>
      </trkpt>
      <trkpt lat="46.92058" lon="-0.58348">
        <ele>149.1238665474</ele>
        <time>2021-08-16T20:22:35.992Z</time>
      </trkpt>
      <trkpt lat="46.92074" lon="-0.58354">
        <ele>148.45536146749</ele>
        <time>2021-08-16T20:22:40.746Z</time>
      </trkpt>
      <trkpt lat="46.92074" lon="-0.58354">
        <ele>147.78130309882</ele>
        <time>2021-08-16T20:22:45.500Z</time>
      </trkpt>
      <trkpt lat="46.9209" lon="-0.58363">
        <ele>146.99944577414</ele>
        <time>2021-08-16T20:22:50.257Z</time>
      </trkpt>
      <trkpt lat="46.92144" lon="-0.58403">
        <ele>146.16124851024</ele>
        <time>2021-08-16T20:22:55.026Z</time>
      </trkpt>
      <trkpt lat="46.92155" lon="-0.58414">
        <ele>145.29919990784</ele>
        <time>2021-08-16T20:22:59.798Z</time>
      </trkpt>
      <trkpt lat="46.92186" lon="-0.58444">
        <ele>144.3798658934</ele>
        <time>2021-08-16T20:23:04.577Z</time>
      </trkpt>
      <trkpt lat="46.922" lon="-0.58465">
        <ele>143.34894368737</ele>
        <time>2021-08-16T20:23:09.360Z</time>
      </trkpt>
      <trkpt lat="46.922" lon="-0.58466">
        <ele>142.25492559785</ele>
        <time>2021-08-16T20:23:14.143Z</time>
      </trkpt>
      <trkpt lat="46.92302" lon="-0.58198">
        <ele>141.02484635259</ele>
        <time>2021-08-16T20:23:18.968Z</time>
      </trkpt>
      <trkpt lat="46.92301" lon="-0.58198">
        <ele>139.75664667123</ele>
        <time>2021-08-16T20:23:23.793Z</time>
      </trkpt>
      <trkpt lat="46.92458" lon="-0.57885">
        <ele>137.94790367984</ele>
        <time>2021-08-16T20:23:28.671Z</time>
      </trkpt>
      <trkpt lat="46.92458" lon="-0.57886">
        <ele>136.55920995672</ele>
        <time>2021-08-16T20:23:33.549Z</time>
      </trkpt>
      <trkpt lat="46.92574" lon="-0.57948">
        <ele>135.18671903301</ele>
        <time>2021-08-16T20:23:38.452Z</time>
      </trkpt>
      <trkpt lat="46.92574" lon="-0.57948">
        <ele>133.75121532885</ele>
        <time>2021-08-16T20:23:43.355Z</time>
      </trkpt>
      <trkpt lat="46.92694" lon="-0.58058">
        <ele>132.12109697744</ele>
        <time>2021-08-16T20:23:48.286Z</time>
      </trkpt>
      <trkpt lat="46.92694" lon="-0.58058">
        <ele>130.6700214608</ele>
        <time>2021-08-16T20:23:53.218Z</time>
      </trkpt>
      <trkpt lat="46.92709" lon="-0.5814">
        <ele>129.39883116797</ele>
        <time>2021-08-16T20:23:58.161Z</time>
      </trkpt>
      <trkpt lat="46.9271" lon="-0.5814">
        <ele>127.95167814421</ele>
        <time>2021-08-16T20:24:03.104Z</time>
      </trkpt>
      <trkpt lat="46.92713" lon="-0.58412">
        <ele>126.14665739988</ele>
        <time>2021-08-16T20:24:08.084Z</time>
      </trkpt>
      <trkpt lat="46.92713" lon="-0.58411">
        <ele>124.74771048217</ele>
        <time>2021-08-16T20:24:13.064Z</time>
      </trkpt>
      <trkpt lat="46.92677" lon="-0.58711">
        <ele>123.17811888458</ele>
        <time>2021-08-16T20:24:18.086Z</time>
      </trkpt>
      <trkpt lat="46.92677" lon="-0.58711">
        <ele>121.93242829342</ele>
        <time>2021-08-16T20:24:23.108Z</time>
      </trkpt>
      <trkpt lat="46.92678" lon="-0.58711">
        <ele>120.78623086479</ele>
        <time>2021-08-16T20:24:28.131Z</time>
      </trkpt>
      <trkpt lat="46.92665" lon="-0.58799">
        <ele>119.58956091311</ele>
        <time>2021-08-16T20:24:33.166Z</time>
      </trkpt>
      <trkpt lat="46.92665" lon="-0.588">
        <ele>118.7012578076</ele>
        <time>2021-08-16T20:24:38.201Z</time>
      </trkpt>
      <trkpt lat="46.92665" lon="-0.58802">
        <ele>117.94352049027</ele>
        <time>2021-08-16T20:24:43.236Z</time>
      </trkpt>
      <trkpt lat="46.92664" lon="-0.58806">
        <ele>117.30752859304</ele>
        <time>2021-08-16T20:24:48.272Z</time>
      </trkpt>
      <trkpt lat="46.92663" lon="-0.58809">
        <ele>116.78400466181</ele>
        <time>2021-08-16T20:24:53.308Z</time>
      </trkpt>
      <trkpt lat="46.92663" lon="-0.58968">
        <ele>116.38954458624</ele>
        <time>2021-08-16T20:24:58.366Z</time>
      </trkpt>
      <trkpt lat="46.92663" lon="-0.58969">
        <ele>116.04148039317</ele>
        <time>2021-08-16T20:25:03.424Z</time>
      </trkpt>
      <trkpt lat="46.92663" lon="-0.58971">
        <ele>115.74863676962</ele>
        <time>2021-08-16T20:25:08.483Z</time>
      </trkpt>
      <trkpt lat="46.92662" lon="-0.58975">
        <ele>115.49268598917</ele>
        <time>2021-08-16T20:25:13.542Z</time>
      </trkpt>
      <trkpt lat="46.92662" lon="-0.58978">
        <ele>115.23989176625</ele>
        <time>2021-08-16T20:25:18.602Z</time>
      </trkpt>
      <trkpt lat="46.92676" lon="-0.5915">
        <ele>114.8215230271</ele>
        <time>2021-08-16T20:25:23.685Z</time>
      </trkpt>
      <trkpt lat="46.92676" lon="-0.5915">
        <ele>114.54975190614</ele>
        <time>2021-08-16T20:25:28.768Z</time>
      </trkpt>
      <trkpt lat="46.92676" lon="-0.59152">
        <ele>114.26373790474</ele>
        <time>2021-08-16T20:25:33.852Z</time>
      </trkpt>
      <trkpt lat="46.92676" lon="-0.59156">
        <ele>113.95751926047</ele>
        <time>2021-08-16T20:25:38.936Z</time>
      </trkpt>
      <trkpt lat="46.92676" lon="-0.5916">
        <ele>113.62656557469</ele>
        <time>2021-08-16T20:25:44.021Z</time>
      </trkpt>
      <trkpt lat="46.92705" lon="-0.59312">
        <ele>113.2607369576</ele>
        <time>2021-08-16T20:25:49.127Z</time>
      </trkpt>
      <trkpt lat="46.92705" lon="-0.59313">
        <ele>112.87670783698</ele>
        <time>2021-08-16T20:25:54.233Z</time>
      </trkpt>
      <trkpt lat="46.92706" lon="-0.59314">
        <ele>112.46905939947</ele>
        <time>2021-08-16T20:25:59.340Z</time>
      </trkpt>
      <trkpt lat="46.92707" lon="-0.59318">
        <ele>112.04438276861</ele>
        <time>2021-08-16T20:26:04.447Z</time>
      </trkpt>
      <trkpt lat="46.92707" lon="-0.59322">
        <ele>111.62595735563</ele>
        <time>2021-08-16T20:26:09.555Z</time>
      </trkpt>
      <trkpt lat="46.92748" lon="-0.59513">
        <ele>110.96330706376</ele>
        <time>2021-08-16T20:26:14.690Z</time>
      </trkpt>
      <trkpt lat="46.92748" lon="-0.59513">
        <ele>110.6326823167</ele>
        <time>2021-08-16T20:26:19.825Z</time>
      </trkpt>
      <trkpt lat="46.92748" lon="-0.59515">
        <ele>110.371811322</ele>
        <time>2021-08-16T20:26:24.960Z</time>
      </trkpt>
      <trkpt lat="46.92749" lon="-0.59519">
        <ele>110.1891154095</ele>
        <time>2021-08-16T20:26:30.096Z</time>
      </trkpt>
      <trkpt lat="46.9275" lon="-0.59522">
        <ele>110.09053715941</ele>
        <time>2021-08-16T20:26:35.232Z</time>
      </trkpt>
      <trkpt lat="46.92797" lon="-0.59688">
        <ele>110.25913758442</ele>
        <time>2021-08-16T20:26:40.393Z</time>
      </trkpt>
      <trkpt lat="46.92797" lon="-0.59689">
        <ele>110.30757932152</ele>
        <time>2021-08-16T20:26:45.554Z</time>
      </trkpt>
      <trkpt lat="46.92798" lon="-0.5969">
        <ele>110.40391941408</ele>
        <time>2021-08-16T20:26:50.715Z</time>
      </trkpt>
      <trkpt lat="46.92799" lon="-0.59694">
        <ele>110.53267271045</ele>
        <time>2021-08-16T20:26:55.877Z</time>
      </trkpt>
      <trkpt lat="46.928" lon="-0.59698">
        <ele>110.68603150565</ele>
        <time>2021-08-16T20:27:01.039Z</time>
      </trkpt>
      <trkpt lat="46.92795" lon="-0.59724">
        <ele>110.87092366992</ele>
        <time>2021-08-16T20:27:06.205Z</time>
      </trkpt>
      <trkpt lat="46.92794" lon="-0.59724">
        <ele>111.0471846002</ele>
        <time>2021-08-16T20:27:11.371Z</time>
      </trkpt>
      <trkpt lat="46.92794" lon="-0.59726">
        <ele>111.22195537169</ele>
        <time>2021-08-16T20:27:16.538Z</time>
      </trkpt>
      <trkpt lat="46.92793" lon="-0.5973">
        <ele>111.38885813683</ele>
        <time>2021-08-16T20:27:21.705Z</time>
      </trkpt>
      <trkpt lat="46.92793" lon="-0.59734">
        <ele>111.54527023493</ele>
        <time>2021-08-16T20:27:26.873Z</time>
      </trkpt>
      <trkpt lat="46.92786" lon="-0.59743">
        <ele>111.68905681888</ele>
        <time>2021-08-16T20:27:32.042Z</time>
      </trkpt>
      <trkpt lat="46.92786" lon="-0.59744">
        <ele>111.81936212697</ele>
        <time>2021-08-16T20:27:37.212Z</time>
      </trkpt>
      <trkpt lat="46.92785" lon="-0.59745">
        <ele>111.93638031317</ele>
        <time>2021-08-16T20:27:42.382Z</time>
      </trkpt>
      <trkpt lat="46.92783" lon="-0.59748">
        <ele>112.04111270478</ele>
        <time>2021-08-16T20:27:47.552Z</time>
      </trkpt>
      <trkpt lat="46.92781" lon="-0.59751">
        <ele>112.13511991248</ele>
        <time>2021-08-16T20:27:52.723Z</time>
      </trkpt>
      <trkpt lat="46.92788" lon="-0.59767">
        <ele>112.22027594378</ele>
        <time>2021-08-16T20:27:57.896Z</time>
      </trkpt>
      <trkpt lat="46.92788" lon="-0.59767">
        <ele>112.29853038658</ele>
        <time>2021-08-16T20:28:03.070Z</time>
      </trkpt>
      <trkpt lat="46.92789" lon="-0.59769">
        <ele>112.37168387111</ele>
        <time>2021-08-16T20:28:08.244Z</time>
      </trkpt>
      <trkpt lat="46.9279" lon="-0.59772">
        <ele>112.44118140138</ele>
        <time>2021-08-16T20:28:13.418Z</time>
      </trkpt>
      <trkpt lat="46.92792" lon="-0.59776">
        <ele>112.50792777095</ele>
        <time>2021-08-16T20:28:18.593Z</time>
      </trkpt>
      <trkpt lat="46.92817" lon="-0.59771">
        <ele>112.60374883955</ele>
        <time>2021-08-16T20:28:23.773Z</time>
      </trkpt>
      <trkpt lat="46.92818" lon="-0.59771">
        <ele>112.66444411159</ele>
        <time>2021-08-16T20:28:28.953Z</time>
      </trkpt>
      <trkpt lat="46.92819" lon="-0.59771">
        <ele>112.72137986026</ele>
        <time>2021-08-16T20:28:34.133Z</time>
      </trkpt>
      <trkpt lat="46.92822" lon="-0.5977">
        <ele>112.77483946454</ele>
        <time>2021-08-16T20:28:39.314Z</time>
      </trkpt>
      <trkpt lat="46.92825" lon="-0.5977">
        <ele>112.82236431472</ele>
        <time>2021-08-16T20:28:44.495Z</time>
      </trkpt>
      <trkpt lat="46.92835" lon="-0.59763">
        <ele>112.86552317707</ele>
        <time>2021-08-16T20:28:49.679Z</time>
      </trkpt>
      <trkpt lat="46.92835" lon="-0.59763">
        <ele>112.89676873541</ele>
        <time>2021-08-16T20:28:54.863Z</time>
      </trkpt>
      <trkpt lat="46.92836" lon="-0.59762">
        <ele>112.92211796655</ele>
        <time>2021-08-16T20:29:00.047Z</time>
      </trkpt>
      <trkpt lat="46.92839" lon="-0.5976">
        <ele>112.94266963521</ele>
        <time>2021-08-16T20:29:05.232Z</time>
      </trkpt>
      <trkpt lat="46.92841" lon="-0.59759">
        <ele>112.9597598366</ele>
        <time>2021-08-16T20:29:10.417Z</time>
      </trkpt>
      <trkpt lat="46.92845" lon="-0.59747">
        <ele>112.97405909971</ele>
        <time>2021-08-16T20:29:15.604Z</time>
      </trkpt>
      <trkpt lat="46.92845" lon="-0.59746">
        <ele>112.98922709916</ele>
        <time>2021-08-16T20:29:20.791Z</time>
      </trkpt>
      <trkpt lat="46.92845" lon="-0.59745">
        <ele>113.00589831552</ele>
        <time>2021-08-16T20:29:25.978Z</time>
      </trkpt>
      <trkpt lat="46.92846" lon="-0.59741">
        <ele>113.02345595008</ele>
        <time>2021-08-16T20:29:31.166Z</time>
      </trkpt>
      <trkpt lat="46.92848" lon="-0.59737">
        <ele>113.04565708648</ele>
        <time>2021-08-16T20:29:36.354Z</time>
      </trkpt>
      <trkpt lat="46.92979" lon="-0.59624">
        <ele>113.03177793204</ele>
        <time>2021-08-16T20:29:41.573Z</time>
      </trkpt>
      <trkpt lat="46.92979" lon="-0.59623">
        <ele>113.06978091297</ele>
        <time>2021-08-16T20:29:46.792Z</time>
      </trkpt>
      <trkpt lat="46.9298" lon="-0.59622">
        <ele>113.11524077745</ele>
        <time>2021-08-16T20:29:52.011Z</time>
      </trkpt>
      <trkpt lat="46.92983" lon="-0.5962">
        <ele>113.16498828919</ele>
        <time>2021-08-16T20:29:57.231Z</time>
      </trkpt>
      <trkpt lat="46.92985" lon="-0.59618">
        <ele>113.21496091035</ele>
        <time>2021-08-16T20:30:02.451Z</time>
      </trkpt>
      <trkpt lat="46.93126" lon="-0.5952">
        <ele>113.35502653005</ele>
        <time>2021-08-16T20:30:07.703Z</time>
      </trkpt>
      <trkpt lat="46.93126" lon="-0.5952">
        <ele>113.37525117351</ele>
        <time>2021-08-16T20:30:12.955Z</time>
      </trkpt>
      <trkpt lat="46.93128" lon="-0.59519">
        <ele>113.36725690622</ele>
        <time>2021-08-16T20:30:18.207Z</time>
      </trkpt>
      <trkpt lat="46.9313" lon="-0.59517">
        <ele>113.32625830739</ele>
        <time>2021-08-16T20:30:23.460Z</time>
      </trkpt>
      <trkpt lat="46.93133" lon="-0.59516">
        <ele>113.24688081701</ele>
        <time>2021-08-16T20:30:28.713Z</time>
      </trkpt>
      <trkpt lat="46.93287" lon="-0.59393">
        <ele>113.06005025354</ele>
        <time>2021-08-16T20:30:34.001Z</time>
      </trkpt>
      <trkpt lat="46.93287" lon="-0.59393">
        <ele>112.90450714213</ele>
        <time>2021-08-16T20:30:39.289Z</time>
      </trkpt>
      <trkpt lat="46.93288" lon="-0.59392">
        <ele>112.72143380717</ele>
        <time>2021-08-16T20:30:44.578Z</time>
      </trkpt>
      <trkpt lat="46.93291" lon="-0.5939">
        <ele>112.51711018625</ele>
        <time>2021-08-16T20:30:49.867Z</time>
      </trkpt>
      <trkpt lat="46.93293" lon="-0.59388">
        <ele>112.29908864662</ele>
        <time>2021-08-16T20:30:55.157Z</time>
      </trkpt>
      <trkpt lat="46.93332" lon="-0.5935">
        <ele>112.02542907014</ele>
        <time>2021-08-16T20:31:00.456Z</time>
      </trkpt>
      <trkpt lat="46.93333" lon="-0.5935">
        <ele>111.80852708929</ele>
        <time>2021-08-16T20:31:05.755Z</time>
      </trkpt>
      <trkpt lat="46.93334" lon="-0.59349">
        <ele>111.6069582476</ele>
        <time>2021-08-16T20:31:11.054Z</time>
      </trkpt>
      <trkpt lat="46.93336" lon="-0.59346">
        <ele>111.42911777853</ele>
        <time>2021-08-16T20:31:16.354Z</time>
      </trkpt>
      <trkpt lat="46.93338" lon="-0.59344">
        <ele>111.28892293423</ele>
        <time>2021-08-16T20:31:21.655Z</time>
      </trkpt>
      <trkpt lat="46.93344" lon="-0.59344">
        <ele>111.18354929053</ele>
        <time>2021-08-16T20:31:26.957Z</time>
      </trkpt>
      <trkpt lat="46.93344" lon="-0.59332">
        <ele>111.15942066118</ele>
        <time>2021-08-16T20:31:32.260Z</time>
      </trkpt>
      <trkpt lat="46.93343" lon="-0.59325">
        <ele>111.20307674858</ele>
        <time>2021-08-16T20:31:37.564Z</time>
      </trkpt>
      <trkpt lat="46.93417" lon="-0.59252">
        <ele>111.09737480578</ele>
        <time>2021-08-16T20:31:42.886Z</time>
      </trkpt>
      <trkpt lat="46.93439" lon="-0.59231">
        <ele>111.27574115206</ele>
        <time>2021-08-16T20:31:48.213Z</time>
      </trkpt>
      <trkpt lat="46.93468" lon="-0.59203">
        <ele>111.64609467234</ele>
        <time>2021-08-16T20:31:53.547Z</time>
      </trkpt>
      <trkpt lat="46.93483" lon="-0.59192">
        <ele>112.02455024699</ele>
        <time>2021-08-16T20:31:58.885Z</time>
      </trkpt>
      <trkpt lat="46.93483" lon="-0.59187">
        <ele>112.32850393793</ele>
        <time>2021-08-16T20:32:04.223Z</time>
      </trkpt>
      <trkpt lat="46.93485" lon="-0.59181">
        <ele>112.64343691363</ele>
        <time>2021-08-16T20:32:09.562Z</time>
      </trkpt>
      <trkpt lat="46.93488" lon="-0.59179">
        <ele>112.93287045306</ele>
        <time>2021-08-16T20:32:14.902Z</time>
      </trkpt>
      <trkpt lat="46.93493" lon="-0.59182">
        <ele>113.18423933053</ele>
        <time>2021-08-16T20:32:20.243Z</time>
      </trkpt>
      <trkpt lat="46.93495" lon="-0.59187">
        <ele>113.38361802926</ele>
        <time>2021-08-16T20:32:25.585Z</time>
      </trkpt>
      <trkpt lat="46.93496" lon="-0.59188">
        <ele>113.5301649258</ele>
        <time>2021-08-16T20:32:30.927Z</time>
      </trkpt>
      <trkpt lat="46.93496" lon="-0.59188">
        <ele>113.61278500997</ele>
        <time>2021-08-16T20:32:36.269Z</time>
      </trkpt>
      <trkpt lat="46.93495" lon="-0.5919">
        <ele>113.62603634434</ele>
        <time>2021-08-16T20:32:41.611Z</time>
      </trkpt>
      <trkpt lat="46.93494" lon="-0.59193">
        <ele>113.56790319704</ele>
        <time>2021-08-16T20:32:46.954Z</time>
      </trkpt>
      <trkpt lat="46.93493" lon="-0.59196">
        <ele>113.44214114884</ele>
        <time>2021-08-16T20:32:52.297Z</time>
      </trkpt>
      <trkpt lat="46.93487" lon="-0.59197">
        <ele>113.23064487026</ele>
        <time>2021-08-16T20:32:57.642Z</time>
      </trkpt>
      <trkpt lat="46.93498" lon="-0.59213">
        <ele>112.9697927992</ele>
        <time>2021-08-16T20:33:02.990Z</time>
      </trkpt>
      <trkpt lat="46.93498" lon="-0.59214">
        <ele>112.67753602003</ele>
        <time>2021-08-16T20:33:08.338Z</time>
      </trkpt>
      <trkpt lat="46.93499" lon="-0.59215">
        <ele>112.3495339561</ele>
        <time>2021-08-16T20:33:13.686Z</time>
      </trkpt>
      <trkpt lat="46.93501" lon="-0.59218">
        <ele>111.99878301604</ele>
        <time>2021-08-16T20:33:19.034Z</time>
      </trkpt>
      <trkpt lat="46.93507" lon="-0.59227">
        <ele>111.64658377254</ele>
        <time>2021-08-16T20:33:24.384Z</time>
      </trkpt>
      <trkpt lat="46.9352" lon="-0.59275">
        <ele>111.2018698675</ele>
        <time>2021-08-16T20:33:29.741Z</time>
      </trkpt>
      <trkpt lat="46.93521" lon="-0.59275">
        <ele>110.86093275986</ele>
        <time>2021-08-16T20:33:35.098Z</time>
      </trkpt>
      <trkpt lat="46.93521" lon="-0.59277">
        <ele>110.55900784765</ele>
        <time>2021-08-16T20:33:40.456Z</time>
      </trkpt>
      <trkpt lat="46.93522" lon="-0.59281">
        <ele>110.31189371964</ele>
        <time>2021-08-16T20:33:45.814Z</time>
      </trkpt>
      <trkpt lat="46.93526" lon="-0.59292">
        <ele>110.12803041844</ele>
        <time>2021-08-16T20:33:51.174Z</time>
      </trkpt>
      <trkpt lat="46.93569" lon="-0.59337">
        <ele>110.03585775655</ele>
        <time>2021-08-16T20:33:56.545Z</time>
      </trkpt>
      <trkpt lat="46.9357" lon="-0.59337">
        <ele>110.11047247721</ele>
        <time>2021-08-16T20:34:01.916Z</time>
      </trkpt>
      <trkpt lat="46.93571" lon="-0.59338">
        <ele>110.31162939118</ele>
        <time>2021-08-16T20:34:07.287Z</time>
      </trkpt>
      <trkpt lat="46.93573" lon="-0.59341">
        <ele>110.64175345814</ele>
        <time>2021-08-16T20:34:12.658Z</time>
      </trkpt>
      <trkpt lat="46.9358" lon="-0.59348">
        <ele>111.10152340291</ele>
        <time>2021-08-16T20:34:18.031Z</time>
      </trkpt>
      <trkpt lat="46.9359" lon="-0.59344">
        <ele>111.71625171987</ele>
        <time>2021-08-16T20:34:23.406Z</time>
      </trkpt>
      <trkpt lat="46.93611" lon="-0.59334">
        <ele>112.53758195868</ele>
        <time>2021-08-16T20:34:28.786Z</time>
      </trkpt>
      <trkpt lat="46.9358" lon="-0.59315">
        <ele>113.1403444692</ele>
        <time>2021-08-16T20:34:34.172Z</time>
      </trkpt>
      <trkpt lat="46.93609" lon="-0.59304">
        <ele>114.10027267685</ele>
        <time>2021-08-16T20:34:39.564Z</time>
      </trkpt>
      <trkpt lat="46.93628" lon="-0.59326">
        <ele>114.86848907463</ele>
        <time>2021-08-16T20:34:44.961Z</time>
      </trkpt>
      <trkpt lat="46.93652" lon="-0.59349">
        <ele>115.62622686748</ele>
        <time>2021-08-16T20:34:50.364Z</time>
      </trkpt>
      <trkpt lat="46.93676" lon="-0.59396">
        <ele>116.16245063558</ele>
        <time>2021-08-16T20:34:55.775Z</time>
      </trkpt>
      <trkpt lat="46.937" lon="-0.59376">
        <ele>116.88642755732</ele>
        <time>2021-08-16T20:35:01.192Z</time>
      </trkpt>
      <trkpt lat="46.93701" lon="-0.59376">
        <ele>117.43788411965</ele>
        <time>2021-08-16T20:35:06.609Z</time>
      </trkpt>
      <trkpt lat="46.93702" lon="-0.59376">
        <ele>117.91107618716</ele>
        <time>2021-08-16T20:35:12.026Z</time>
      </trkpt>
      <trkpt lat="46.93705" lon="-0.59376">
        <ele>118.29973162027</ele>
        <time>2021-08-16T20:35:17.443Z</time>
      </trkpt>
      <trkpt lat="46.93713" lon="-0.59377">
        <ele>118.59336603206</ele>
        <time>2021-08-16T20:35:22.862Z</time>
      </trkpt>
      <trkpt lat="46.93717" lon="-0.59366">
        <ele>118.81113883537</ele>
        <time>2021-08-16T20:35:28.283Z</time>
      </trkpt>
      <trkpt lat="46.93717" lon="-0.59365">
        <ele>118.91300025765</ele>
        <time>2021-08-16T20:35:33.704Z</time>
      </trkpt>
      <trkpt lat="46.93718" lon="-0.59364">
        <ele>118.91983857962</ele>
        <time>2021-08-16T20:35:39.125Z</time>
      </trkpt>
      <trkpt lat="46.93719" lon="-0.5936">
        <ele>118.83475814033</ele>
        <time>2021-08-16T20:35:44.547Z</time>
      </trkpt>
      <trkpt lat="46.93722" lon="-0.59348">
        <ele>118.67109244384</ele>
        <time>2021-08-16T20:35:49.971Z</time>
      </trkpt>
      <trkpt lat="46.93723" lon="-0.59348">
        <ele>118.40107176887</ele>
        <time>2021-08-16T20:35:55.395Z</time>
      </trkpt>
      <trkpt lat="46.93746" lon="-0.59446">
        <ele>117.92032488672</ele>
        <time>2021-08-16T20:36:00.833Z</time>
      </trkpt>
      <trkpt lat="46.93746" lon="-0.59447">
        <ele>117.5077395328</ele>
        <time>2021-08-16T20:36:06.271Z</time>
      </trkpt>
      <trkpt lat="46.93746" lon="-0.59448">
        <ele>117.0427145241</ele>
        <time>2021-08-16T20:36:11.709Z</time>
      </trkpt>
      <trkpt lat="46.93747" lon="-0.59452">
        <ele>116.533621802</ele>
        <time>2021-08-16T20:36:17.148Z</time>
      </trkpt>
      <trkpt lat="46.93749" lon="-0.59459">
        <ele>115.98975089156</ele>
        <time>2021-08-16T20:36:22.588Z</time>
      </trkpt>
      <trkpt lat="46.9375" lon="-0.59465">
        <ele>115.42430354015</ele>
        <time>2021-08-16T20:36:28.029Z</time>
      </trkpt>
      <trkpt lat="46.9375" lon="-0.59465">
        <ele>114.85082229763</ele>
        <time>2021-08-16T20:36:33.470Z</time>
      </trkpt>
      <trkpt lat="46.93779" lon="-0.5959">
        <ele>114.19786833028</ele>
        <time>2021-08-16T20:36:38.929Z</time>
      </trkpt>
      <trkpt lat="46.9379" lon="-0.59624">
        <ele>113.60155086791</ele>
        <time>2021-08-16T20:36:44.393Z</time>
      </trkpt>
      <trkpt lat="46.9379" lon="-0.59624">
        <ele>113.05548853234</ele>
        <time>2021-08-16T20:36:49.857Z</time>
      </trkpt>
      <trkpt lat="46.93791" lon="-0.59626">
        <ele>112.53851309744</ele>
        <time>2021-08-16T20:36:55.321Z</time>
      </trkpt>
      <trkpt lat="46.93792" lon="-0.5963">
        <ele>112.05759963709</ele>
        <time>2021-08-16T20:37:00.786Z</time>
      </trkpt>
      <trkpt lat="46.93796" lon="-0.59642">
        <ele>111.60361254216</ele>
        <time>2021-08-16T20:37:06.253Z</time>
      </trkpt>
      <trkpt lat="46.93796" lon="-0.59642">
        <ele>111.24449638431</ele>
        <time>2021-08-16T20:37:11.720Z</time>
      </trkpt>
      <trkpt lat="46.93798" lon="-0.59647">
        <ele>110.94810400785</ele>
        <time>2021-08-16T20:37:17.187Z</time>
      </trkpt>
      <trkpt lat="46.93807" lon="-0.59667">
        <ele>110.7132511903</ele>
        <time>2021-08-16T20:37:22.658Z</time>
      </trkpt>
      <trkpt lat="46.93851" lon="-0.59748">
        <ele>110.51958202364</ele>
        <time>2021-08-16T20:37:28.143Z</time>
      </trkpt>
      <trkpt lat="46.93851" lon="-0.59748">
        <ele>110.4789339876</ele>
        <time>2021-08-16T20:37:33.628Z</time>
      </trkpt>
      <trkpt lat="46.93852" lon="-0.59751">
        <ele>110.53645741677</ele>
        <time>2021-08-16T20:37:39.113Z</time>
      </trkpt>
      <trkpt lat="46.93852" lon="-0.59752">
        <ele>110.68257539785</ele>
        <time>2021-08-16T20:37:44.598Z</time>
      </trkpt>
      <trkpt lat="46.93853" lon="-0.59753">
        <ele>110.91810363864</ele>
        <time>2021-08-16T20:37:50.084Z</time>
      </trkpt>
      <trkpt lat="46.93854" lon="-0.59757">
        <ele>111.23589118224</ele>
        <time>2021-08-16T20:37:55.570Z</time>
      </trkpt>
      <trkpt lat="46.93859" lon="-0.59768">
        <ele>111.63282169964</ele>
        <time>2021-08-16T20:38:01.058Z</time>
      </trkpt>
      <trkpt lat="46.93893" lon="-0.59742">
        <ele>112.21399687576</ele>
        <time>2021-08-16T20:38:06.554Z</time>
      </trkpt>
      <trkpt lat="46.93893" lon="-0.59742">
        <ele>112.67697486076</ele>
        <time>2021-08-16T20:38:12.050Z</time>
      </trkpt>
      <trkpt lat="46.93894" lon="-0.59741">
        <ele>113.15409992883</ele>
        <time>2021-08-16T20:38:17.546Z</time>
      </trkpt>
      <trkpt lat="46.93896" lon="-0.59739">
        <ele>113.63259799124</ele>
        <time>2021-08-16T20:38:23.043Z</time>
      </trkpt>
      <trkpt lat="46.93905" lon="-0.59732">
        <ele>114.10919201074</ele>
        <time>2021-08-16T20:38:28.541Z</time>
      </trkpt>
      <trkpt lat="46.93929" lon="-0.59707">
        <ele>114.56709816371</ele>
        <time>2021-08-16T20:38:34.045Z</time>
      </trkpt>
      <trkpt lat="46.9393" lon="-0.59707">
        <ele>114.94208723899</ele>
        <time>2021-08-16T20:38:39.550Z</time>
      </trkpt>
      <trkpt lat="46.93931" lon="-0.59706">
        <ele>115.2724229758</ele>
        <time>2021-08-16T20:38:45.055Z</time>
      </trkpt>
      <trkpt lat="46.93933" lon="-0.59703">
        <ele>115.55791156638</ele>
        <time>2021-08-16T20:38:50.560Z</time>
      </trkpt>
      <trkpt lat="46.93941" lon="-0.59695">
        <ele>115.80172669941</ele>
        <time>2021-08-16T20:38:56.067Z</time>
      </trkpt>
      <trkpt lat="46.93961" lon="-0.59671">
        <ele>115.94938394249</ele>
        <time>2021-08-16T20:39:01.579Z</time>
      </trkpt>
      <trkpt lat="46.93961" lon="-0.59671">
        <ele>116.11301967043</ele>
        <time>2021-08-16T20:39:07.092Z</time>
      </trkpt>
      <trkpt lat="46.93962" lon="-0.5967">
        <ele>116.25100065371</ele>
        <time>2021-08-16T20:39:12.605Z</time>
      </trkpt>
      <trkpt lat="46.93964" lon="-0.59667">
        <ele>116.3771913621</ele>
        <time>2021-08-16T20:39:18.118Z</time>
      </trkpt>
      <trkpt lat="46.93972" lon="-0.59658">
        <ele>116.50150043422</ele>
        <time>2021-08-16T20:39:23.633Z</time>
      </trkpt>
      <trkpt lat="46.94027" lon="-0.59706">
        <ele>116.63590719354</ele>
        <time>2021-08-16T20:39:29.161Z</time>
      </trkpt>
      <trkpt lat="46.94027" lon="-0.59707">
        <ele>116.733379889</ele>
        <time>2021-08-16T20:39:34.689Z</time>
      </trkpt>
      <trkpt lat="46.94028" lon="-0.59708">
        <ele>116.82591032127</ele>
        <time>2021-08-16T20:39:40.217Z</time>
      </trkpt>
      <trkpt lat="46.9403" lon="-0.5971">
        <ele>116.91437052802</ele>
        <time>2021-08-16T20:39:45.746Z</time>
      </trkpt>
      <trkpt lat="46.94038" lon="-0.59717">
        <ele>116.99941763155</ele>
        <time>2021-08-16T20:39:51.277Z</time>
      </trkpt>
      <trkpt lat="46.94046" lon="-0.59725">
        <ele>117.08594888672</ele>
        <time>2021-08-16T20:39:56.810Z</time>
      </trkpt>
      <trkpt lat="46.94046" lon="-0.59726">
        <ele>117.15536445513</ele>
        <time>2021-08-16T20:40:02.343Z</time>
      </trkpt>
      <trkpt lat="46.94047" lon="-0.59727">
        <ele>117.2146982373</ele>
        <time>2021-08-16T20:40:07.876Z</time>
      </trkpt>
      <trkpt lat="46.94049" lon="-0.59729">
        <ele>117.26105589893</ele>
        <time>2021-08-16T20:40:13.410Z</time>
      </trkpt>
      <trkpt lat="46.94057" lon="-0.59738">
        <ele>117.30284258125</ele>
        <time>2021-08-16T20:40:18.945Z</time>
      </trkpt>
      <trkpt lat="46.94057" lon="-0.59738">
        <ele>117.29033758349</ele>
        <time>2021-08-16T20:40:24.480Z</time>
      </trkpt>
      <trkpt lat="46.94057" lon="-0.59737">
        <ele>117.24308502446</ele>
        <time>2021-08-16T20:40:30.016Z</time>
      </trkpt>
      <trkpt lat="46.94059" lon="-0.59735">
        <ele>117.16799399906</ele>
        <time>2021-08-16T20:40:35.552Z</time>
      </trkpt>
      <trkpt lat="46.9408" lon="-0.59736">
        <ele>117.11877695288</ele>
        <time>2021-08-16T20:40:41.092Z</time>
      </trkpt>
      <trkpt lat="46.9413" lon="-0.59745">
        <ele>116.99191012741</ele>
        <time>2021-08-16T20:40:46.642Z</time>
      </trkpt>
      <trkpt lat="46.9414" lon="-0.59749">
        <ele>116.76606729406</ele>
        <time>2021-08-16T20:40:52.195Z</time>
      </trkpt>
      <trkpt lat="46.9415" lon="-0.59748">
        <ele>116.48794006837</ele>
        <time>2021-08-16T20:40:57.750Z</time>
      </trkpt>
      <trkpt lat="46.94162" lon="-0.59742">
        <ele>116.18452595085</ele>
        <time>2021-08-16T20:41:03.307Z</time>
      </trkpt>
      <trkpt lat="46.94162" lon="-0.59742">
        <ele>115.93739711523</ele>
        <time>2021-08-16T20:41:08.864Z</time>
      </trkpt>
      <trkpt lat="46.94163" lon="-0.59742">
        <ele>115.71706958098</ele>
        <time>2021-08-16T20:41:14.421Z</time>
      </trkpt>
      <trkpt lat="46.94204" lon="-0.59684">
        <ele>115.3711424113</ele>
        <time>2021-08-16T20:41:19.990Z</time>
      </trkpt>
      <trkpt lat="46.94204" lon="-0.59683">
        <ele>115.30163290443</ele>
        <time>2021-08-16T20:41:25.559Z</time>
      </trkpt>
      <trkpt lat="46.94205" lon="-0.59682">
        <ele>115.34113475262</ele>
        <time>2021-08-16T20:41:31.128Z</time>
      </trkpt>
      <trkpt lat="46.94262" lon="-0.5998">
        <ele>115.5979040936</ele>
        <time>2021-08-16T20:41:36.739Z</time>
      </trkpt>
      <trkpt lat="46.94262" lon="-0.5998">
        <ele>115.88605934838</ele>
        <time>2021-08-16T20:41:42.350Z</time>
      </trkpt>
      <trkpt lat="46.94263" lon="-0.59982">
        <ele>116.29900758247</ele>
        <time>2021-08-16T20:41:47.962Z</time>
      </trkpt>
      <trkpt lat="46.94263" lon="-0.59982">
        <ele>116.82651070907</ele>
        <time>2021-08-16T20:41:53.574Z</time>
      </trkpt>
      <trkpt lat="46.94254" lon="-0.59985">
        <ele>117.51521779611</ele>
        <time>2021-08-16T20:41:59.187Z</time>
      </trkpt>
      <trkpt lat="46.9426" lon="-0.60013">
        <ele>118.30049720127</ele>
        <time>2021-08-16T20:42:04.804Z</time>
      </trkpt>
      <trkpt lat="46.94277" lon="-0.60087">
        <ele>119.07511738338</ele>
        <time>2021-08-16T20:42:10.432Z</time>
      </trkpt>
      <trkpt lat="46.94315" lon="-0.60278">
        <ele>120.2668446343</ele>
        <time>2021-08-16T20:42:16.087Z</time>
      </trkpt>
      <trkpt lat="46.94337" lon="-0.60389">
        <ele>120.89984609755</ele>
        <time>2021-08-16T20:42:21.758Z</time>
      </trkpt>
      <trkpt lat="46.94346" lon="-0.60465">
        <ele>121.65127213021</ele>
        <time>2021-08-16T20:42:27.440Z</time>
      </trkpt>
      <trkpt lat="46.94352" lon="-0.60516">
        <ele>122.3326450733</ele>
        <time>2021-08-16T20:42:33.129Z</time>
      </trkpt>
      <trkpt lat="46.94349" lon="-0.60543">
        <ele>123.02651852581</ele>
        <time>2021-08-16T20:42:38.822Z</time>
      </trkpt>
      <trkpt lat="46.94353" lon="-0.60654">
        <ele>123.62829943493</ele>
        <time>2021-08-16T20:42:44.530Z</time>
      </trkpt>
      <trkpt lat="46.94356" lon="-0.60664">
        <ele>124.13054515821</ele>
        <time>2021-08-16T20:42:50.239Z</time>
      </trkpt>
      <trkpt lat="46.94356" lon="-0.60664">
        <ele>124.53998733424</ele>
        <time>2021-08-16T20:42:55.948Z</time>
      </trkpt>
      <trkpt lat="46.94356" lon="-0.60666">
        <ele>124.84388235866</ele>
        <time>2021-08-16T20:43:01.658Z</time>
      </trkpt>
      <trkpt lat="46.94356" lon="-0.60666">
        <ele>125.0275281891</ele>
        <time>2021-08-16T20:43:07.368Z</time>
      </trkpt>
      <trkpt lat="46.9436" lon="-0.60679">
        <ele>125.08122598832</ele>
        <time>2021-08-16T20:43:13.080Z</time>
      </trkpt>
      <trkpt lat="46.94347" lon="-0.60921">
        <ele>125.06382458515</ele>
        <time>2021-08-16T20:43:18.825Z</time>
      </trkpt>
      <trkpt lat="46.94347" lon="-0.60921">
        <ele>124.82285065953</ele>
        <time>2021-08-16T20:43:24.570Z</time>
      </trkpt>
      <trkpt lat="46.94346" lon="-0.60923">
        <ele>124.41977200816</ele>
        <time>2021-08-16T20:43:30.315Z</time>
      </trkpt>
      <trkpt lat="46.94352" lon="-0.60933">
        <ele>123.82232102601</ele>
        <time>2021-08-16T20:43:36.062Z</time>
      </trkpt>
      <trkpt lat="46.9435" lon="-0.60969">
        <ele>123.10029478471</ele>
        <time>2021-08-16T20:43:41.814Z</time>
      </trkpt>
      <trkpt lat="46.94359" lon="-0.61074">
        <ele>122.15852453376</ele>
        <time>2021-08-16T20:43:47.580Z</time>
      </trkpt>
      <trkpt lat="46.94375" lon="-0.61066">
        <ele>121.09478001017</ele>
        <time>2021-08-16T20:43:53.350Z</time>
      </trkpt>
      <trkpt lat="46.94387" lon="-0.61008">
        <ele>119.87108045142</ele>
        <time>2021-08-16T20:43:59.128Z</time>
      </trkpt>
      <trkpt lat="46.94397" lon="-0.61001">
        <ele>118.56649421947</ele>
        <time>2021-08-16T20:44:04.908Z</time>
      </trkpt>
      <trkpt lat="46.9442" lon="-0.61008">
        <ele>117.16461618743</ele>
        <time>2021-08-16T20:44:10.693Z</time>
      </trkpt>
      <trkpt lat="46.94438" lon="-0.61008">
        <ele>115.78289262525</ele>
        <time>2021-08-16T20:44:16.481Z</time>
      </trkpt>
      <trkpt lat="46.9445" lon="-0.61003">
        <ele>114.44829646436</ele>
        <time>2021-08-16T20:44:22.272Z</time>
      </trkpt>
      <trkpt lat="46.94482" lon="-0.60969">
        <ele>113.10048732661</ele>
        <time>2021-08-16T20:44:28.071Z</time>
      </trkpt>
      <trkpt lat="46.9452" lon="-0.60942">
        <ele>111.88329542722</ele>
        <time>2021-08-16T20:44:33.878Z</time>
      </trkpt>
      <trkpt lat="46.94537" lon="-0.60934">
        <ele>110.8265156476</ele>
        <time>2021-08-16T20:44:39.689Z</time>
      </trkpt>
      <trkpt lat="46.94533" lon="-0.6091">
        <ele>110.01611040408</ele>
        <time>2021-08-16T20:44:45.504Z</time>
      </trkpt>
      <trkpt lat="46.94536" lon="-0.60896">
        <ele>109.38394467044</ele>
        <time>2021-08-16T20:44:51.321Z</time>
      </trkpt>
      <trkpt lat="46.94528" lon="-0.60878">
        <ele>108.98994131067</ele>
        <time>2021-08-16T20:44:57.141Z</time>
      </trkpt>
      <trkpt lat="46.94531" lon="-0.60858">
        <ele>108.78951557626</ele>
        <time>2021-08-16T20:45:02.963Z</time>
      </trkpt>
      <trkpt lat="46.94538" lon="-0.60834">
        <ele>108.79684765636</ele>
        <time>2021-08-16T20:45:08.789Z</time>
      </trkpt>
      <trkpt lat="46.94538" lon="-0.60773">
        <ele>108.92744831225</ele>
        <time>2021-08-16T20:45:14.623Z</time>
      </trkpt>
      <trkpt lat="46.94546" lon="-0.60693">
        <ele>109.49746474961</ele>
        <time>2021-08-16T20:45:20.468Z</time>
      </trkpt>
      <trkpt lat="46.9455" lon="-0.60629">
        <ele>110.22047984539</ele>
        <time>2021-08-16T20:45:26.322Z</time>
      </trkpt>
      <trkpt lat="46.94566" lon="-0.60588">
        <ele>111.43616691486</ele>
        <time>2021-08-16T20:45:32.183Z</time>
      </trkpt>
      <trkpt lat="46.94566" lon="-0.60587">
        <ele>112.83550890241</ele>
        <time>2021-08-16T20:45:38.044Z</time>
      </trkpt>
      <trkpt lat="46.94567" lon="-0.60586">
        <ele>114.50501248712</ele>
        <time>2021-08-16T20:45:43.905Z</time>
      </trkpt>
      <trkpt lat="46.94567" lon="-0.60586">
        <ele>116.41228715615</ele>
        <time>2021-08-16T20:45:49.766Z</time>
      </trkpt>
      <trkpt lat="46.94683" lon="-0.60556">
        <ele>118.73894659506</ele>
        <time>2021-08-16T20:45:55.651Z</time>
      </trkpt>
      <trkpt lat="46.94683" lon="-0.60556">
        <ele>120.96483628923</ele>
        <time>2021-08-16T20:46:01.536Z</time>
      </trkpt>
      <trkpt lat="46.94685" lon="-0.60556">
        <ele>123.25739853885</ele>
        <time>2021-08-16T20:46:07.421Z</time>
      </trkpt>
      <trkpt lat="46.94874" lon="-0.60435">
        <ele>126.40212936728</ele>
        <time>2021-08-16T20:46:13.347Z</time>
      </trkpt>
      <trkpt lat="46.94874" lon="-0.60435">
        <ele>128.44701467383</ele>
        <time>2021-08-16T20:46:19.273Z</time>
      </trkpt>
      <trkpt lat="46.94876" lon="-0.60434">
        <ele>130.25694958569</ele>
        <time>2021-08-16T20:46:25.200Z</time>
      </trkpt>
      <trkpt lat="46.95074" lon="-0.60288">
        <ele>131.89142159548</ele>
        <time>2021-08-16T20:46:31.171Z</time>
      </trkpt>
      <trkpt lat="46.95074" lon="-0.60287">
        <ele>133.07569898564</ele>
        <time>2021-08-16T20:46:37.142Z</time>
      </trkpt>
      <trkpt lat="46.95076" lon="-0.60286">
        <ele>133.9188266362</ele>
        <time>2021-08-16T20:46:43.114Z</time>
      </trkpt>
      <trkpt lat="46.94957" lon="-0.60043">
        <ele>134.12923784328</ele>
        <time>2021-08-16T20:46:49.126Z</time>
      </trkpt>
      <trkpt lat="46.94957" lon="-0.60042">
        <ele>134.37091139587</ele>
        <time>2021-08-16T20:46:55.139Z</time>
      </trkpt>
      <trkpt lat="46.94956" lon="-0.60041">
        <ele>134.35736526348</ele>
        <time>2021-08-16T20:47:01.152Z</time>
      </trkpt>
      <trkpt lat="46.94935" lon="-0.6001">
        <ele>134.00394500486</ele>
        <time>2021-08-16T20:47:07.171Z</time>
      </trkpt>
      <trkpt lat="46.94935" lon="-0.6001">
        <ele>133.62193536979</ele>
        <time>2021-08-16T20:47:13.190Z</time>
      </trkpt>
      <trkpt lat="46.94934" lon="-0.60009">
        <ele>133.11044859123</ele>
        <time>2021-08-16T20:47:19.209Z</time>
      </trkpt>
      <trkpt lat="46.94943" lon="-0.5998">
        <ele>132.61366988673</ele>
        <time>2021-08-16T20:47:25.232Z</time>
      </trkpt>
      <trkpt lat="46.94943" lon="-0.5998">
        <ele>131.95017264521</ele>
        <time>2021-08-16T20:47:31.255Z</time>
      </trkpt>
      <trkpt lat="46.94943" lon="-0.59978">
        <ele>131.25940522833</ele>
        <time>2021-08-16T20:47:37.279Z</time>
      </trkpt>
      <trkpt lat="46.94931" lon="-0.59956">
        <ele>130.50962556806</ele>
        <time>2021-08-16T20:47:43.306Z</time>
      </trkpt>
      <trkpt lat="46.94931" lon="-0.59956">
        <ele>129.84605982572</ele>
        <time>2021-08-16T20:47:49.333Z</time>
      </trkpt>
      <trkpt lat="46.9493" lon="-0.59954">
        <ele>129.24158537029</ele>
        <time>2021-08-16T20:47:55.361Z</time>
      </trkpt>
      <trkpt lat="46.94902" lon="-0.59963">
        <ele>128.63227818195</ele>
        <time>2021-08-16T20:48:01.394Z</time>
      </trkpt>
      <trkpt lat="46.94902" lon="-0.59964">
        <ele>128.24983132342</ele>
        <time>2021-08-16T20:48:07.428Z</time>
      </trkpt>
      <trkpt lat="46.949" lon="-0.59964">
        <ele>128.00558345806</ele>
        <time>2021-08-16T20:48:13.462Z</time>
      </trkpt>
      <trkpt lat="46.94845" lon="-0.59899">
        <ele>127.86972527688</ele>
        <time>2021-08-16T20:48:19.510Z</time>
      </trkpt>
      <trkpt lat="46.94845" lon="-0.59898">
        <ele>127.96226539665</ele>
        <time>2021-08-16T20:48:25.558Z</time>
      </trkpt>
      <trkpt lat="46.94844" lon="-0.59897">
        <ele>128.22134712675</ele>
        <time>2021-08-16T20:48:31.606Z</time>
      </trkpt>
      <trkpt lat="46.94844" lon="-0.59901">
        <ele>128.63975513779</ele>
        <time>2021-08-16T20:48:37.655Z</time>
      </trkpt>
      <trkpt lat="46.94849" lon="-0.59893">
        <ele>129.23443236442</ele>
        <time>2021-08-16T20:48:43.705Z</time>
      </trkpt>
      <trkpt lat="46.94876" lon="-0.59858">
        <ele>129.93757454751</ele>
        <time>2021-08-16T20:48:49.763Z</time>
      </trkpt>
      <trkpt lat="46.94898" lon="-0.59838">
        <ele>130.69345900448</ele>
        <time>2021-08-16T20:48:55.826Z</time>
      </trkpt>
      <trkpt lat="46.94938" lon="-0.59789">
        <ele>131.59414788922</ele>
        <time>2021-08-16T20:49:01.899Z</time>
      </trkpt>
      <trkpt lat="46.94967" lon="-0.59746">
        <ele>132.34809296326</ele>
        <time>2021-08-16T20:49:07.981Z</time>
      </trkpt>
      <trkpt lat="46.94989" lon="-0.59704">
        <ele>132.89114674637</ele>
        <time>2021-08-16T20:49:14.070Z</time>
      </trkpt>
      <trkpt lat="46.9499" lon="-0.59703">
        <ele>133.18699361655</ele>
        <time>2021-08-16T20:49:20.159Z</time>
      </trkpt>
      <trkpt lat="46.94992" lon="-0.59698">
        <ele>133.29856920741</ele>
        <time>2021-08-16T20:49:26.249Z</time>
      </trkpt>
      <trkpt lat="46.94958" lon="-0.5965">
        <ele>133.1532724391</ele>
        <time>2021-08-16T20:49:32.348Z</time>
      </trkpt>
      <trkpt lat="46.94879" lon="-0.59529">
        <ele>132.58141756665</ele>
        <time>2021-08-16T20:49:38.470Z</time>
      </trkpt>
      <trkpt lat="46.94856" lon="-0.59552">
        <ele>132.16539038195</ele>
        <time>2021-08-16T20:49:44.598Z</time>
      </trkpt>
      <trkpt lat="46.94855" lon="-0.59552">
        <ele>131.66680456127</ele>
        <time>2021-08-16T20:49:50.726Z</time>
      </trkpt>
      <trkpt lat="46.94852" lon="-0.59556">
        <ele>131.03616231167</ele>
        <time>2021-08-16T20:49:56.855Z</time>
      </trkpt>
      <trkpt lat="46.94827" lon="-0.59616">
        <ele>130.2331973797</ele>
        <time>2021-08-16T20:50:02.993Z</time>
      </trkpt>
      <trkpt lat="46.94827" lon="-0.59616">
        <ele>129.43117762309</ele>
        <time>2021-08-16T20:50:09.131Z</time>
      </trkpt>
      <trkpt lat="46.94777" lon="-0.59705">
        <ele>128.40221724019</ele>
        <time>2021-08-16T20:50:15.285Z</time>
      </trkpt>
      <trkpt lat="46.94777" lon="-0.59705">
        <ele>127.52384036958</ele>
        <time>2021-08-16T20:50:21.439Z</time>
      </trkpt>
      <trkpt lat="46.94774" lon="-0.5971">
        <ele>126.59188796941</ele>
        <time>2021-08-16T20:50:27.594Z</time>
      </trkpt>
      <trkpt lat="46.94774" lon="-0.5971">
        <ele>125.61570250569</ele>
        <time>2021-08-16T20:50:33.749Z</time>
      </trkpt>
      <trkpt lat="46.94772" lon="-0.59713">
        <ele>124.58153295175</ele>
        <time>2021-08-16T20:50:39.905Z</time>
      </trkpt>
      <trkpt lat="46.94772" lon="-0.59713">
        <ele>123.49538813783</ele>
        <time>2021-08-16T20:50:46.061Z</time>
      </trkpt>
      <trkpt lat="46.94749" lon="-0.59665">
        <ele>122.33565138531</ele>
        <time>2021-08-16T20:50:52.225Z</time>
      </trkpt>
      <trkpt lat="46.94719" lon="-0.59704">
        <ele>121.14328308428</ele>
        <time>2021-08-16T20:50:58.397Z</time>
      </trkpt>
      <trkpt lat="46.94663" lon="-0.59781">
        <ele>119.75940445452</ele>
        <time>2021-08-16T20:51:04.584Z</time>
      </trkpt>
      <trkpt lat="46.94637" lon="-0.59803">
        <ele>118.57780337368</ele>
        <time>2021-08-16T20:51:10.777Z</time>
      </trkpt>
      <trkpt lat="46.94626" lon="-0.59818">
        <ele>117.55499401908</ele>
        <time>2021-08-16T20:51:16.973Z</time>
      </trkpt>
      <trkpt lat="46.94607" lon="-0.5985">
        <ele>116.65131950221</ele>
        <time>2021-08-16T20:51:23.175Z</time>
      </trkpt>
      <trkpt lat="46.94607" lon="-0.5985">
        <ele>115.95097859222</ele>
        <time>2021-08-16T20:51:29.377Z</time>
      </trkpt>
      <trkpt lat="46.94604" lon="-0.59855">
        <ele>115.36568646753</ele>
        <time>2021-08-16T20:51:35.580Z</time>
      </trkpt>
      <trkpt lat="46.94604" lon="-0.59855">
        <ele>114.9311926517</ele>
        <time>2021-08-16T20:51:41.783Z</time>
      </trkpt>
      <trkpt lat="46.94595" lon="-0.59869">
        <ele>114.60468167612</ele>
        <time>2021-08-16T20:51:47.989Z</time>
      </trkpt>
      <trkpt lat="46.94586" lon="-0.59883">
        <ele>114.43158777705</ele>
        <time>2021-08-16T20:51:54.197Z</time>
      </trkpt>
      <trkpt lat="46.94577" lon="-0.59889">
        <ele>114.41535969065</ele>
        <time>2021-08-16T20:52:00.407Z</time>
      </trkpt>
      <trkpt lat="46.94563" lon="-0.59849">
        <ele>114.65955057939</ele>
        <time>2021-08-16T20:52:06.624Z</time>
      </trkpt>
      <trkpt lat="46.94551" lon="-0.59825">
        <ele>114.69577248575</ele>
        <time>2021-08-16T20:52:12.845Z</time>
      </trkpt>
      <trkpt lat="46.94532" lon="-0.59794">
        <ele>114.73631191473</ele>
        <time>2021-08-16T20:52:19.071Z</time>
      </trkpt>
      <trkpt lat="46.94527" lon="-0.59778">
        <ele>114.8748288843</ele>
        <time>2021-08-16T20:52:25.300Z</time>
      </trkpt>
      <trkpt lat="46.9452" lon="-0.59751">
        <ele>115.0155936016</ele>
        <time>2021-08-16T20:52:31.533Z</time>
      </trkpt>
      <trkpt lat="46.94516" lon="-0.59738">
        <ele>115.15743731532</ele>
        <time>2021-08-16T20:52:37.768Z</time>
      </trkpt>
      <trkpt lat="46.9451" lon="-0.59725">
        <ele>115.24293504502</ele>
        <time>2021-08-16T20:52:44.005Z</time>
      </trkpt>
      <trkpt lat="46.94494" lon="-0.59705">
        <ele>115.17691563654</ele>
        <time>2021-08-16T20:52:50.246Z</time>
      </trkpt>
      <trkpt lat="46.94486" lon="-0.59697">
        <ele>115.16567104492</ele>
        <time>2021-08-16T20:52:56.489Z</time>
      </trkpt>
      <trkpt lat="46.94471" lon="-0.59676">
        <ele>115.09466903112</ele>
        <time>2021-08-16T20:53:02.736Z</time>
      </trkpt>
      <trkpt lat="46.94466" lon="-0.59672">
        <ele>115.05823892884</ele>
        <time>2021-08-16T20:53:08.984Z</time>
      </trkpt>
      <trkpt lat="46.94459" lon="-0.59669">
        <ele>115.04525409765</ele>
        <time>2021-08-16T20:53:15.234Z</time>
      </trkpt>
      <trkpt lat="46.94459" lon="-0.59668">
        <ele>115.10234558616</ele>
        <time>2021-08-16T20:53:21.484Z</time>
      </trkpt>
      <trkpt lat="46.94455" lon="-0.59666">
        <ele>115.22909277772</ele>
        <time>2021-08-16T20:53:27.735Z</time>
      </trkpt>
      <trkpt lat="46.94471" lon="-0.59647">
        <ele>115.5164257388</ele>
        <time>2021-08-16T20:53:33.990Z</time>
      </trkpt>
      <trkpt lat="46.94477" lon="-0.59642">
        <ele>115.86236582567</ele>
        <time>2021-08-16T20:53:40.246Z</time>
      </trkpt>
      <trkpt lat="46.94491" lon="-0.59623">
        <ele>116.38447457176</ele>
        <time>2021-08-16T20:53:46.506Z</time>
      </trkpt>
      <trkpt lat="46.94491" lon="-0.59623">
        <ele>116.86964758783</ele>
        <time>2021-08-16T20:53:52.766Z</time>
      </trkpt>
      <trkpt lat="46.94508" lon="-0.59599">
        <ele>117.59387346642</ele>
        <time>2021-08-16T20:53:59.031Z</time>
      </trkpt>
      <trkpt lat="46.94508" lon="-0.59599">
        <ele>118.15918418182</ele>
        <time>2021-08-16T20:54:05.296Z</time>
      </trkpt>
      <trkpt lat="46.94523" lon="-0.59579">
        <ele>118.82060017619</ele>
        <time>2021-08-16T20:54:11.565Z</time>
      </trkpt>
    </trkseg>
  </trk>
</gpx>